<?xml version="1.0" encoding="UTF-8" standalone="no" ?>
<gpx xmlns="http://www.topografix.com/GPX/1/1" xmlns:xsi="http://www.w3.org/2001/XMLSchema-instance" xsi:schemaLocation="http://www.topografix.com/GPX/1/1 http://www.topografix.com/GPX/1/1/gpx.xsd" version="1.1" creator="VisuGPX - https://www.visugpx.com">
  <metadata>
    <name>Via Rhôna 2018</name>
    <desc><![CDATA[Ma ViaRhôna depuis Annecy jusqu'à la plage de Piémanson en 4 jours.
11/12/13/14 Mai 2018]]></desc>
  </metadata>
  <wpt lat="45.89897" lon="6.12964">
    <ele>452</ele>
    <name><![CDATA[Annecy]]></name>
  </wpt>
  <wpt lat="45.93371" lon="5.83679">
    <ele>255</ele>
    <name><![CDATA[2410 D991]]></name>
  </wpt>
  <wpt lat="43.67945" lon="4.61781">
    <ele>8</ele>
    <name><![CDATA[21-23 Avenue de la Camargue]]></name>
  </wpt>
  <wpt lat="43.34865" lon="4.7838">
    <ele>1</ele>
    <name><![CDATA[Plage de Piemanson]]></name>
  </wpt>
  <trk>
    <name><![CDATA[20180516133043-ZSSil]]></name>
    <trkseg>
      <trkpt lat="44.92905" lon="4.88919">
        <ele>128</ele>
        <time>2013-04-24T13:26:20Z</time>
      </trkpt>
      <trkpt lat="44.92912" lon="4.88869">
        <ele>126</ele>
        <time>2013-04-24T13:27:44Z</time>
      </trkpt>
      <trkpt lat="44.92912" lon="4.88869">
        <ele>126</ele>
        <time>2013-04-24T13:27:57Z</time>
      </trkpt>
      <trkpt lat="44.92912" lon="4.88869">
        <ele>126</ele>
        <time>2013-04-24T13:28:09Z</time>
      </trkpt>
      <trkpt lat="44.92913" lon="4.88863">
        <ele>126</ele>
        <time>2013-04-24T13:28:18Z</time>
      </trkpt>
      <trkpt lat="44.9292" lon="4.88842">
        <ele>124</ele>
        <time>2013-04-24T13:28:24Z</time>
      </trkpt>
      <trkpt lat="44.92926" lon="4.88821">
        <ele>122</ele>
        <time>2013-04-24T13:28:31Z</time>
      </trkpt>
      <trkpt lat="44.9293" lon="4.88805">
        <ele>121</ele>
        <time>2013-04-24T13:28:36Z</time>
      </trkpt>
      <trkpt lat="44.92937" lon="4.88796">
        <ele>121</ele>
        <time>2013-04-24T13:28:42Z</time>
      </trkpt>
      <trkpt lat="44.92939" lon="4.88797">
        <ele>121</ele>
        <time>2013-04-24T13:28:44Z</time>
      </trkpt>
      <trkpt lat="44.92941" lon="4.88797">
        <ele>121</ele>
        <time>2013-04-24T13:28:47Z</time>
      </trkpt>
      <trkpt lat="44.92941" lon="4.88797">
        <ele>121</ele>
        <time>2013-04-24T13:29:00Z</time>
      </trkpt>
      <trkpt lat="44.92941" lon="4.88797">
        <ele>121</ele>
        <time>2013-04-24T13:29:14Z</time>
      </trkpt>
      <trkpt lat="44.92947" lon="4.88799">
        <ele>121</ele>
        <time>2013-04-24T13:29:22Z</time>
      </trkpt>
      <trkpt lat="44.92959" lon="4.88805">
        <ele>121</ele>
        <time>2013-04-24T13:29:26Z</time>
      </trkpt>
      <trkpt lat="44.92966" lon="4.88808">
        <ele>121</ele>
        <time>2013-04-24T13:29:29Z</time>
      </trkpt>
      <trkpt lat="44.92966" lon="4.88806">
        <ele>121</ele>
        <time>2013-04-24T13:29:30Z</time>
      </trkpt>
      <trkpt lat="44.92963" lon="4.88803">
        <ele>121</ele>
        <time>2013-04-24T13:29:33Z</time>
      </trkpt>
      <trkpt lat="44.92961" lon="4.88802">
        <ele>121</ele>
        <time>2013-04-24T13:29:34Z</time>
      </trkpt>
      <trkpt lat="44.92956" lon="4.888">
        <ele>121</ele>
        <time>2013-04-24T13:29:36Z</time>
      </trkpt>
      <trkpt lat="44.92954" lon="4.88799">
        <ele>121</ele>
        <time>2013-04-24T13:29:37Z</time>
      </trkpt>
      <trkpt lat="44.92952" lon="4.88797">
        <ele>121</ele>
        <time>2013-04-24T13:29:38Z</time>
      </trkpt>
      <trkpt lat="44.9295" lon="4.88797">
        <ele>121</ele>
        <time>2013-04-24T13:29:39Z</time>
      </trkpt>
      <trkpt lat="44.92948" lon="4.88795">
        <ele>121</ele>
        <time>2013-04-24T13:29:40Z</time>
      </trkpt>
      <trkpt lat="44.92946" lon="4.88793">
        <ele>121</ele>
        <time>2013-04-24T13:29:43Z</time>
      </trkpt>
      <trkpt lat="44.92946" lon="4.88791">
        <ele>121</ele>
        <time>2013-04-24T13:29:44Z</time>
      </trkpt>
      <trkpt lat="44.92945" lon="4.88787">
        <ele>121</ele>
        <time>2013-04-24T13:29:46Z</time>
      </trkpt>
      <trkpt lat="44.92945" lon="4.88787">
        <ele>121</ele>
        <time>2013-04-24T13:29:46Z</time>
      </trkpt>
      <trkpt lat="44.92943" lon="4.88786">
        <ele>120</ele>
        <time>2013-04-24T13:29:47Z</time>
      </trkpt>
      <trkpt lat="44.92933" lon="4.88775">
        <ele>120</ele>
        <time>2013-04-24T13:29:52Z</time>
      </trkpt>
      <trkpt lat="44.92917" lon="4.88759">
        <ele>118</ele>
        <time>2013-04-24T13:29:59Z</time>
      </trkpt>
      <trkpt lat="44.92911" lon="4.88754">
        <ele>118</ele>
        <time>2013-04-24T13:30:01Z</time>
      </trkpt>
      <trkpt lat="44.92907" lon="4.88752">
        <ele>119</ele>
        <time>2013-04-24T13:30:02Z</time>
      </trkpt>
      <trkpt lat="44.92903" lon="4.88748">
        <ele>117</ele>
        <time>2013-04-24T13:30:03Z</time>
      </trkpt>
      <trkpt lat="44.92898" lon="4.88745">
        <ele>117</ele>
        <time>2013-04-24T13:30:04Z</time>
      </trkpt>
      <trkpt lat="44.92894" lon="4.88742">
        <ele>117</ele>
        <time>2013-04-24T13:30:05Z</time>
      </trkpt>
      <trkpt lat="44.92875" lon="4.88729">
        <ele>118</ele>
        <time>2013-04-24T13:30:09Z</time>
      </trkpt>
      <trkpt lat="44.92864" lon="4.88721">
        <ele>118</ele>
        <time>2013-04-24T13:30:11Z</time>
      </trkpt>
      <trkpt lat="44.92859" lon="4.88716">
        <ele>118</ele>
        <time>2013-04-24T13:30:12Z</time>
      </trkpt>
      <trkpt lat="44.92853" lon="4.88711">
        <ele>118</ele>
        <time>2013-04-24T13:30:13Z</time>
      </trkpt>
      <trkpt lat="44.92847" lon="4.88706">
        <ele>118</ele>
        <time>2013-04-24T13:30:14Z</time>
      </trkpt>
      <trkpt lat="44.92841" lon="4.887">
        <ele>118</ele>
        <time>2013-04-24T13:30:15Z</time>
      </trkpt>
      <trkpt lat="44.92817" lon="4.88675">
        <ele>120</ele>
        <time>2013-04-24T13:30:19Z</time>
      </trkpt>
      <trkpt lat="44.92812" lon="4.88668">
        <ele>120</ele>
        <time>2013-04-24T13:30:20Z</time>
      </trkpt>
      <trkpt lat="44.92806" lon="4.88659">
        <ele>117</ele>
        <time>2013-04-24T13:30:21Z</time>
      </trkpt>
      <trkpt lat="44.92802" lon="4.8865">
        <ele>117</ele>
        <time>2013-04-24T13:30:22Z</time>
      </trkpt>
      <trkpt lat="44.92799" lon="4.88642">
        <ele>117</ele>
        <time>2013-04-24T13:30:23Z</time>
      </trkpt>
      <trkpt lat="44.92797" lon="4.88632">
        <ele>116</ele>
        <time>2013-04-24T13:30:24Z</time>
      </trkpt>
      <trkpt lat="44.92795" lon="4.88622">
        <ele>116</ele>
        <time>2013-04-24T13:30:25Z</time>
      </trkpt>
      <trkpt lat="44.92795" lon="4.88612">
        <ele>116</ele>
        <time>2013-04-24T13:30:26Z</time>
      </trkpt>
      <trkpt lat="44.92797" lon="4.88602">
        <ele>115</ele>
        <time>2013-04-24T13:30:27Z</time>
      </trkpt>
      <trkpt lat="44.92807" lon="4.88582">
        <ele>111</ele>
        <time>2013-04-24T13:30:30Z</time>
      </trkpt>
      <trkpt lat="44.92811" lon="4.88577">
        <ele>111</ele>
        <time>2013-04-24T13:30:31Z</time>
      </trkpt>
      <trkpt lat="44.92814" lon="4.88572">
        <ele>111</ele>
        <time>2013-04-24T13:30:32Z</time>
      </trkpt>
      <trkpt lat="44.92817" lon="4.88567">
        <ele>111</ele>
        <time>2013-04-24T13:30:33Z</time>
      </trkpt>
      <trkpt lat="44.9282" lon="4.88562">
        <ele>111</ele>
        <time>2013-04-24T13:30:34Z</time>
      </trkpt>
      <trkpt lat="44.92823" lon="4.88558">
        <ele>111</ele>
        <time>2013-04-24T13:30:35Z</time>
      </trkpt>
      <trkpt lat="44.92826" lon="4.88553">
        <ele>111</ele>
        <time>2013-04-24T13:30:36Z</time>
      </trkpt>
      <trkpt lat="44.92845" lon="4.88521">
        <ele>109</ele>
        <time>2013-04-24T13:30:42Z</time>
      </trkpt>
      <trkpt lat="44.9286" lon="4.885">
        <ele>108</ele>
        <time>2013-04-24T13:30:46Z</time>
      </trkpt>
      <trkpt lat="44.92867" lon="4.88489">
        <ele>108</ele>
        <time>2013-04-24T13:30:48Z</time>
      </trkpt>
      <trkpt lat="44.92874" lon="4.88478">
        <ele>108</ele>
        <time>2013-04-24T13:30:50Z</time>
      </trkpt>
      <trkpt lat="44.92882" lon="4.88459">
        <ele>108</ele>
        <time>2013-04-24T13:30:53Z</time>
      </trkpt>
      <trkpt lat="44.92886" lon="4.88437">
        <ele>108</ele>
        <time>2013-04-24T13:30:56Z</time>
      </trkpt>
      <trkpt lat="44.92889" lon="4.88423">
        <ele>108</ele>
        <time>2013-04-24T13:30:58Z</time>
      </trkpt>
      <trkpt lat="44.92895" lon="4.88376">
        <ele>108</ele>
        <time>2013-04-24T13:31:05Z</time>
      </trkpt>
      <trkpt lat="44.92895" lon="4.8837">
        <ele>108</ele>
        <time>2013-04-24T13:31:06Z</time>
      </trkpt>
      <trkpt lat="44.92905" lon="4.88337">
        <ele>108</ele>
        <time>2013-04-24T13:31:13Z</time>
      </trkpt>
      <trkpt lat="44.92915" lon="4.88282">
        <ele>107</ele>
        <time>2013-04-24T13:31:38Z</time>
      </trkpt>
      <trkpt lat="44.92938" lon="4.883">
        <ele>106</ele>
        <time>2013-04-24T13:32:00Z</time>
      </trkpt>
      <trkpt lat="44.92943" lon="4.88295">
        <ele>106</ele>
        <time>2013-04-24T13:32:03Z</time>
      </trkpt>
      <trkpt lat="44.92945" lon="4.88292">
        <ele>106</ele>
        <time>2013-04-24T13:32:04Z</time>
      </trkpt>
      <trkpt lat="44.9295" lon="4.88274">
        <ele>106</ele>
        <time>2013-04-24T13:32:11Z</time>
      </trkpt>
      <trkpt lat="44.92954" lon="4.88256">
        <ele>106</ele>
        <time>2013-04-24T13:32:17Z</time>
      </trkpt>
      <trkpt lat="44.92953" lon="4.88254">
        <ele>106</ele>
        <time>2013-04-24T13:32:18Z</time>
      </trkpt>
      <trkpt lat="44.92952" lon="4.88252">
        <ele>106</ele>
        <time>2013-04-24T13:32:19Z</time>
      </trkpt>
      <trkpt lat="44.92951" lon="4.8825">
        <ele>107</ele>
        <time>2013-04-24T13:32:20Z</time>
      </trkpt>
      <trkpt lat="44.9295" lon="4.88247">
        <ele>107</ele>
        <time>2013-04-24T13:32:21Z</time>
      </trkpt>
      <trkpt lat="44.92948" lon="4.88245">
        <ele>107</ele>
        <time>2013-04-24T13:32:22Z</time>
      </trkpt>
      <trkpt lat="44.92946" lon="4.88243">
        <ele>107</ele>
        <time>2013-04-24T13:32:23Z</time>
      </trkpt>
      <trkpt lat="44.92915" lon="4.88217">
        <ele>107</ele>
      </trkpt>
      <trkpt lat="44.92915" lon="4.88217">
        <ele>107</ele>
      </trkpt>
      <trkpt lat="44.92824" lon="4.88141">
        <ele>107</ele>
        <time>2013-04-24T13:33:47Z</time>
      </trkpt>
      <trkpt lat="44.92798" lon="4.88119">
        <ele>107</ele>
        <time>2013-04-24T13:33:55Z</time>
      </trkpt>
      <trkpt lat="44.92765" lon="4.88092">
        <ele>107</ele>
        <time>2013-04-24T13:34:04Z</time>
      </trkpt>
      <trkpt lat="44.92731" lon="4.88064">
        <ele>107</ele>
        <time>2013-04-24T13:34:13Z</time>
      </trkpt>
      <trkpt lat="44.92704" lon="4.88041">
        <ele>107</ele>
        <time>2013-04-24T13:34:20Z</time>
      </trkpt>
      <trkpt lat="44.92655" lon="4.88">
        <ele>107</ele>
        <time>2013-04-24T13:34:34Z</time>
      </trkpt>
      <trkpt lat="44.92633" lon="4.87981">
        <ele>108</ele>
        <time>2013-04-24T13:34:41Z</time>
      </trkpt>
      <trkpt lat="44.926" lon="4.87949">
        <ele>108</ele>
        <time>2013-04-24T13:34:50Z</time>
      </trkpt>
      <trkpt lat="44.92566" lon="4.87919">
        <ele>108</ele>
        <time>2013-04-24T13:34:58Z</time>
      </trkpt>
      <trkpt lat="44.92533" lon="4.87892">
        <ele>109</ele>
        <time>2013-04-24T13:35:06Z</time>
      </trkpt>
      <trkpt lat="44.92501" lon="4.87863">
        <ele>108</ele>
        <time>2013-04-24T13:35:14Z</time>
      </trkpt>
      <trkpt lat="44.9247" lon="4.87829">
        <ele>107</ele>
        <time>2013-04-24T13:35:22Z</time>
      </trkpt>
      <trkpt lat="44.92457" lon="4.87809">
        <ele>107</ele>
        <time>2013-04-24T13:35:26Z</time>
      </trkpt>
      <trkpt lat="44.9245" lon="4.87801">
        <ele>107</ele>
        <time>2013-04-24T13:35:28Z</time>
      </trkpt>
      <trkpt lat="44.92433" lon="4.87785">
        <ele>107</ele>
        <time>2013-04-24T13:35:32Z</time>
      </trkpt>
      <trkpt lat="44.92405" lon="4.87758">
        <ele>107</ele>
        <time>2013-04-24T13:35:38Z</time>
      </trkpt>
      <trkpt lat="44.92375" lon="4.87729">
        <ele>106</ele>
        <time>2013-04-24T13:35:45Z</time>
      </trkpt>
      <trkpt lat="44.92347" lon="4.877">
        <ele>106</ele>
        <time>2013-04-24T13:35:51Z</time>
      </trkpt>
      <trkpt lat="44.92307" lon="4.87669">
        <ele>106</ele>
        <time>2013-04-24T13:35:59Z</time>
      </trkpt>
      <trkpt lat="44.92302" lon="4.87666">
        <ele>106</ele>
        <time>2013-04-24T13:36:00Z</time>
      </trkpt>
      <trkpt lat="44.9228" lon="4.87653">
        <ele>106</ele>
        <time>2013-04-24T13:36:05Z</time>
      </trkpt>
      <trkpt lat="44.92256" lon="4.87638">
        <ele>106</ele>
        <time>2013-04-24T13:40:15Z</time>
      </trkpt>
      <trkpt lat="44.92246" lon="4.87628">
        <ele>106</ele>
        <time>2013-04-24T13:40:18Z</time>
      </trkpt>
      <trkpt lat="44.92242" lon="4.87625">
        <ele>106</ele>
        <time>2013-04-24T13:40:19Z</time>
      </trkpt>
      <trkpt lat="44.9221" lon="4.87599">
        <ele>106</ele>
        <time>2013-04-24T13:40:26Z</time>
      </trkpt>
      <trkpt lat="44.92177" lon="4.87568">
        <ele>107</ele>
        <time>2013-04-24T13:40:33Z</time>
      </trkpt>
      <trkpt lat="44.92142" lon="4.87538">
        <ele>107</ele>
        <time>2013-04-24T13:40:40Z</time>
      </trkpt>
      <trkpt lat="44.92109" lon="4.8751">
        <ele>107</ele>
        <time>2013-04-24T13:40:47Z</time>
      </trkpt>
      <trkpt lat="44.9208" lon="4.87489">
        <ele>107</ele>
        <time>2013-04-24T13:40:53Z</time>
      </trkpt>
      <trkpt lat="44.92051" lon="4.87464">
        <ele>106</ele>
        <time>2013-04-24T13:40:59Z</time>
      </trkpt>
      <trkpt lat="44.92019" lon="4.87444">
        <ele>106</ele>
        <time>2013-04-24T13:41:05Z</time>
      </trkpt>
      <trkpt lat="44.91972" lon="4.87415">
        <ele>106</ele>
        <time>2013-04-24T13:41:14Z</time>
      </trkpt>
      <trkpt lat="44.9193" lon="4.87393">
        <ele>107</ele>
        <time>2013-04-24T13:41:22Z</time>
      </trkpt>
      <trkpt lat="44.91891" lon="4.8738">
        <ele>107</ele>
        <time>2013-04-24T13:41:29Z</time>
      </trkpt>
      <trkpt lat="44.91865" lon="4.87368">
        <ele>107</ele>
        <time>2013-04-24T13:41:34Z</time>
      </trkpt>
      <trkpt lat="44.91842" lon="4.87358">
        <ele>107</ele>
        <time>2013-04-24T13:41:39Z</time>
      </trkpt>
      <trkpt lat="44.9182" lon="4.87349">
        <ele>108</ele>
        <time>2013-04-24T13:41:44Z</time>
      </trkpt>
      <trkpt lat="44.91804" lon="4.87342">
        <ele>108</ele>
        <time>2013-04-24T13:41:48Z</time>
      </trkpt>
      <trkpt lat="44.91799" lon="4.8734">
        <ele>108</ele>
        <time>2013-04-24T13:41:49Z</time>
      </trkpt>
      <trkpt lat="44.91769" lon="4.87334">
        <ele>110</ele>
        <time>2013-04-24T13:41:54Z</time>
      </trkpt>
      <trkpt lat="44.91745" lon="4.87333">
        <ele>109</ele>
        <time>2013-04-24T13:41:58Z</time>
      </trkpt>
      <trkpt lat="44.91739" lon="4.87335">
        <ele>110</ele>
        <time>2013-04-24T13:41:59Z</time>
      </trkpt>
      <trkpt lat="44.91707" lon="4.87349">
        <ele>110</ele>
        <time>2013-04-24T13:42:05Z</time>
      </trkpt>
      <trkpt lat="44.91682" lon="4.87369">
        <ele>110</ele>
        <time>2013-04-24T13:42:11Z</time>
      </trkpt>
      <trkpt lat="44.91664" lon="4.87377">
        <ele>108</ele>
        <time>2013-04-24T13:42:16Z</time>
      </trkpt>
      <trkpt lat="44.91658" lon="4.87382">
        <ele>108</ele>
        <time>2013-04-24T13:42:19Z</time>
      </trkpt>
      <trkpt lat="44.91656" lon="4.87381">
        <ele>108</ele>
        <time>2013-04-24T13:42:20Z</time>
      </trkpt>
      <trkpt lat="44.91653" lon="4.87379">
        <ele>108</ele>
        <time>2013-04-24T13:42:25Z</time>
      </trkpt>
      <trkpt lat="44.91653" lon="4.87379">
        <ele>108</ele>
        <time>2013-04-24T13:42:43Z</time>
      </trkpt>
      <trkpt lat="44.91651" lon="4.87379">
        <ele>108</ele>
        <time>2013-04-24T13:42:48Z</time>
      </trkpt>
      <trkpt lat="44.91647" lon="4.87381">
        <ele>108</ele>
        <time>2013-04-24T13:42:50Z</time>
      </trkpt>
      <trkpt lat="44.91647" lon="4.87381">
        <ele>108</ele>
        <time>2013-04-24T13:42:50Z</time>
      </trkpt>
      <trkpt lat="44.91639" lon="4.87396">
        <ele>108</ele>
        <time>2013-04-24T13:42:54Z</time>
      </trkpt>
      <trkpt lat="44.91635" lon="4.87406">
        <ele>108</ele>
        <time>2013-04-24T13:42:56Z</time>
      </trkpt>
      <trkpt lat="44.91629" lon="4.8742">
        <ele>108</ele>
        <time>2013-04-24T13:42:59Z</time>
      </trkpt>
      <trkpt lat="44.91615" lon="4.87456">
        <ele>107</ele>
        <time>2013-04-24T13:43:07Z</time>
      </trkpt>
      <trkpt lat="44.91602" lon="4.87485">
        <ele>106</ele>
        <time>2013-04-24T13:43:13Z</time>
      </trkpt>
      <trkpt lat="44.91564" lon="4.87581">
        <ele>106</ele>
        <time>2013-04-24T13:43:40Z</time>
      </trkpt>
      <trkpt lat="44.91561" lon="4.87581">
        <ele>106</ele>
        <time>2013-04-24T13:43:41Z</time>
      </trkpt>
      <trkpt lat="44.91559" lon="4.87579">
        <ele>106</ele>
        <time>2013-04-24T13:43:43Z</time>
      </trkpt>
      <trkpt lat="44.91559" lon="4.87579">
        <ele>106</ele>
        <time>2013-04-24T13:43:43Z</time>
      </trkpt>
      <trkpt lat="44.91559" lon="4.8758">
        <ele>106</ele>
        <time>2013-04-24T13:43:47Z</time>
      </trkpt>
      <trkpt lat="44.91556" lon="4.87579">
        <ele>106</ele>
        <time>2013-04-24T13:44:00Z</time>
      </trkpt>
      <trkpt lat="44.91544" lon="4.8757">
        <ele>106</ele>
        <time>2013-04-24T13:44:05Z</time>
      </trkpt>
      <trkpt lat="44.91525" lon="4.87557">
        <ele>106</ele>
        <time>2013-04-24T13:44:10Z</time>
      </trkpt>
      <trkpt lat="44.91504" lon="4.87542">
        <ele>106</ele>
        <time>2013-04-24T13:44:17Z</time>
      </trkpt>
      <trkpt lat="44.91435" lon="4.8749">
        <ele>106</ele>
        <time>2013-04-24T13:45:00Z</time>
      </trkpt>
      <trkpt lat="44.91416" lon="4.87477">
        <ele>107</ele>
        <time>2013-04-24T13:45:05Z</time>
      </trkpt>
      <trkpt lat="44.91394" lon="4.8746">
        <ele>106</ele>
        <time>2013-04-24T13:45:12Z</time>
      </trkpt>
      <trkpt lat="44.91368" lon="4.87442">
        <ele>106</ele>
        <time>2013-04-24T13:45:19Z</time>
      </trkpt>
      <trkpt lat="44.91342" lon="4.87424">
        <ele>107</ele>
        <time>2013-04-24T13:45:26Z</time>
      </trkpt>
      <trkpt lat="44.91323" lon="4.8741">
        <ele>107</ele>
        <time>2013-04-24T13:45:31Z</time>
      </trkpt>
      <trkpt lat="44.91298" lon="4.87393">
        <ele>107</ele>
        <time>2013-04-24T13:45:38Z</time>
      </trkpt>
      <trkpt lat="44.91276" lon="4.87377">
        <ele>107</ele>
        <time>2013-04-24T13:45:44Z</time>
      </trkpt>
      <trkpt lat="44.91103" lon="4.87254">
        <ele>109</ele>
        <time>2013-04-24T13:47:29Z</time>
      </trkpt>
      <trkpt lat="44.9107" lon="4.87231">
        <ele>108</ele>
        <time>2013-04-24T13:47:37Z</time>
      </trkpt>
      <trkpt lat="44.91042" lon="4.87213">
        <ele>108</ele>
        <time>2013-04-24T13:47:43Z</time>
      </trkpt>
      <trkpt lat="44.91012" lon="4.8719">
        <ele>108</ele>
        <time>2013-04-24T13:47:50Z</time>
      </trkpt>
      <trkpt lat="44.90982" lon="4.87169">
        <ele>108</ele>
        <time>2013-04-24T13:47:57Z</time>
      </trkpt>
      <trkpt lat="44.90957" lon="4.87151">
        <ele>108</ele>
        <time>2013-04-24T13:48:03Z</time>
      </trkpt>
      <trkpt lat="44.90933" lon="4.87132">
        <ele>108</ele>
        <time>2013-04-24T13:48:10Z</time>
      </trkpt>
      <trkpt lat="44.90798" lon="4.87013">
        <ele>107</ele>
        <time>2013-04-24T13:48:44Z</time>
      </trkpt>
      <trkpt lat="44.90777" lon="4.86992">
        <ele>107</ele>
        <time>2013-04-24T13:48:49Z</time>
      </trkpt>
      <trkpt lat="44.90748" lon="4.86965">
        <ele>108</ele>
        <time>2013-04-24T13:48:56Z</time>
      </trkpt>
      <trkpt lat="44.90743" lon="4.86964">
        <ele>108</ele>
        <time>2013-04-24T13:48:57Z</time>
      </trkpt>
      <trkpt lat="44.90729" lon="4.86955">
        <ele>108</ele>
        <time>2013-04-24T13:49:00Z</time>
      </trkpt>
      <trkpt lat="44.90725" lon="4.86953">
        <ele>108</ele>
        <time>2013-04-24T13:49:01Z</time>
      </trkpt>
      <trkpt lat="44.90718" lon="4.86957">
        <ele>108</ele>
        <time>2013-04-24T13:49:03Z</time>
      </trkpt>
      <trkpt lat="44.90714" lon="4.86962">
        <ele>108</ele>
        <time>2013-04-24T13:49:04Z</time>
      </trkpt>
      <trkpt lat="44.907" lon="4.8698">
        <ele>108</ele>
        <time>2013-04-24T13:49:08Z</time>
      </trkpt>
      <trkpt lat="44.90682" lon="4.87003">
        <ele>108</ele>
        <time>2013-04-24T13:49:13Z</time>
      </trkpt>
      <trkpt lat="44.90681" lon="4.87007">
        <ele>108</ele>
        <time>2013-04-24T13:49:14Z</time>
      </trkpt>
      <trkpt lat="44.90669" lon="4.87042">
        <ele>108</ele>
        <time>2013-04-24T13:49:20Z</time>
      </trkpt>
      <trkpt lat="44.90655" lon="4.8708">
        <ele>107</ele>
        <time>2013-04-24T13:49:27Z</time>
      </trkpt>
      <trkpt lat="44.90643" lon="4.87107">
        <ele>107</ele>
        <time>2013-04-24T13:49:33Z</time>
      </trkpt>
      <trkpt lat="44.90633" lon="4.87117">
        <ele>107</ele>
        <time>2013-04-24T13:49:37Z</time>
      </trkpt>
      <trkpt lat="44.90629" lon="4.87121">
        <ele>107</ele>
        <time>2013-04-24T13:49:41Z</time>
      </trkpt>
      <trkpt lat="44.90629" lon="4.87121">
        <ele>107</ele>
        <time>2013-04-24T13:49:49Z</time>
      </trkpt>
      <trkpt lat="44.90629" lon="4.87121">
        <ele>107</ele>
        <time>2013-04-24T13:50:03Z</time>
      </trkpt>
      <trkpt lat="44.90626" lon="4.87129">
        <ele>107</ele>
        <time>2013-04-24T13:50:07Z</time>
      </trkpt>
      <trkpt lat="44.90623" lon="4.87143">
        <ele>107</ele>
        <time>2013-04-24T13:50:11Z</time>
      </trkpt>
      <trkpt lat="44.90633" lon="4.87102">
        <ele>107</ele>
      </trkpt>
      <trkpt lat="44.90626" lon="4.87113">
        <ele>107</ele>
      </trkpt>
      <trkpt lat="44.90624" lon="4.87129">
        <ele>107</ele>
      </trkpt>
      <trkpt lat="44.90608" lon="4.87255">
        <ele>108</ele>
      </trkpt>
      <trkpt lat="44.90532" lon="4.8719">
        <ele>107</ele>
      </trkpt>
      <trkpt lat="44.90518" lon="4.87173">
        <ele>107</ele>
      </trkpt>
      <trkpt lat="44.90572" lon="4.87085">
        <ele>105</ele>
      </trkpt>
      <trkpt lat="44.90773" lon="4.86767">
        <ele>104</ele>
      </trkpt>
      <trkpt lat="44.90819" lon="4.86694">
        <ele>104</ele>
      </trkpt>
      <trkpt lat="44.90857" lon="4.86641">
        <ele>104</ele>
      </trkpt>
      <trkpt lat="44.90886" lon="4.86594">
        <ele>104</ele>
      </trkpt>
      <trkpt lat="44.9093" lon="4.86527">
        <ele>107</ele>
      </trkpt>
      <trkpt lat="44.90991" lon="4.86427">
        <ele>105</ele>
      </trkpt>
      <trkpt lat="44.91021" lon="4.86391">
        <ele>105</ele>
      </trkpt>
      <trkpt lat="44.91049" lon="4.86362">
        <ele>105</ele>
      </trkpt>
      <trkpt lat="44.91075" lon="4.8634">
        <ele>105</ele>
      </trkpt>
      <trkpt lat="44.91104" lon="4.86321">
        <ele>106</ele>
      </trkpt>
      <trkpt lat="44.91142" lon="4.86302">
        <ele>106</ele>
      </trkpt>
      <trkpt lat="44.91179" lon="4.86289">
        <ele>106</ele>
      </trkpt>
      <trkpt lat="44.91209" lon="4.86282">
        <ele>106</ele>
      </trkpt>
      <trkpt lat="44.91251" lon="4.86279">
        <ele>105</ele>
      </trkpt>
      <trkpt lat="44.913" lon="4.86284">
        <ele>105</ele>
      </trkpt>
      <trkpt lat="44.91352" lon="4.86296">
        <ele>105</ele>
      </trkpt>
      <trkpt lat="44.91389" lon="4.86307">
        <ele>105</ele>
      </trkpt>
      <trkpt lat="44.91419" lon="4.86314">
        <ele>105</ele>
      </trkpt>
      <trkpt lat="44.91481" lon="4.86329">
        <ele>104</ele>
      </trkpt>
      <trkpt lat="44.91517" lon="4.86339">
        <ele>104</ele>
      </trkpt>
      <trkpt lat="44.9157" lon="4.86353">
        <ele>104</ele>
      </trkpt>
      <trkpt lat="44.91605" lon="4.86355">
        <ele>105</ele>
      </trkpt>
      <trkpt lat="44.91633" lon="4.86356">
        <ele>106</ele>
      </trkpt>
      <trkpt lat="44.9166" lon="4.86353">
        <ele>107</ele>
      </trkpt>
      <trkpt lat="44.91669" lon="4.8635">
        <ele>109</ele>
      </trkpt>
      <trkpt lat="44.91673" lon="4.8635">
        <ele>109</ele>
      </trkpt>
      <trkpt lat="44.91674" lon="4.86352">
        <ele>109</ele>
      </trkpt>
      <trkpt lat="44.91675" lon="4.86354">
        <ele>109</ele>
      </trkpt>
      <trkpt lat="44.91673" lon="4.86358">
        <ele>108</ele>
      </trkpt>
      <trkpt lat="44.9167" lon="4.86358">
        <ele>108</ele>
      </trkpt>
      <trkpt lat="44.91665" lon="4.86357">
        <ele>107</ele>
      </trkpt>
      <trkpt lat="44.91658" lon="4.86358">
        <ele>107</ele>
      </trkpt>
      <trkpt lat="44.91651" lon="4.86361">
        <ele>106</ele>
      </trkpt>
      <trkpt lat="44.91642" lon="4.86364">
        <ele>106</ele>
      </trkpt>
      <trkpt lat="44.91634" lon="4.86371">
        <ele>106</ele>
      </trkpt>
      <trkpt lat="44.91621" lon="4.86378">
        <ele>105</ele>
      </trkpt>
      <trkpt lat="44.91586" lon="4.86381">
        <ele>105</ele>
      </trkpt>
      <trkpt lat="44.91526" lon="4.86377">
        <ele>103</ele>
      </trkpt>
      <trkpt lat="44.91516" lon="4.86383">
        <ele>103</ele>
      </trkpt>
      <trkpt lat="44.91503" lon="4.86392">
        <ele>103</ele>
      </trkpt>
      <trkpt lat="44.91489" lon="4.86402">
        <ele>104</ele>
      </trkpt>
      <trkpt lat="44.9148" lon="4.86404">
        <ele>104</ele>
      </trkpt>
      <trkpt lat="44.91472" lon="4.86407">
        <ele>104</ele>
      </trkpt>
      <trkpt lat="44.91456" lon="4.86403">
        <ele>104</ele>
      </trkpt>
      <trkpt lat="44.9143" lon="4.86395">
        <ele>105</ele>
      </trkpt>
      <trkpt lat="44.91414" lon="4.8639">
        <ele>105</ele>
      </trkpt>
      <trkpt lat="44.91402" lon="4.86387">
        <ele>105</ele>
      </trkpt>
      <trkpt lat="44.9138" lon="4.86382">
        <ele>105</ele>
      </trkpt>
      <trkpt lat="44.91361" lon="4.8638">
        <ele>106</ele>
      </trkpt>
      <trkpt lat="44.91352" lon="4.86379">
        <ele>106</ele>
      </trkpt>
      <trkpt lat="44.91345" lon="4.86375">
        <ele>106</ele>
      </trkpt>
      <trkpt lat="44.91328" lon="4.86361">
        <ele>106</ele>
      </trkpt>
      <trkpt lat="44.91314" lon="4.86352">
        <ele>106</ele>
      </trkpt>
      <trkpt lat="44.91306" lon="4.86348">
        <ele>106</ele>
      </trkpt>
      <trkpt lat="44.91294" lon="4.86343">
        <ele>106</ele>
      </trkpt>
      <trkpt lat="44.9128" lon="4.86341">
        <ele>106</ele>
      </trkpt>
      <trkpt lat="44.91254" lon="4.8634">
        <ele>105</ele>
      </trkpt>
      <trkpt lat="44.91231" lon="4.86338">
        <ele>106</ele>
      </trkpt>
      <trkpt lat="44.91206" lon="4.86336">
        <ele>106</ele>
      </trkpt>
      <trkpt lat="44.91188" lon="4.86334">
        <ele>106</ele>
      </trkpt>
      <trkpt lat="44.91173" lon="4.86332">
        <ele>106</ele>
      </trkpt>
      <trkpt lat="44.91164" lon="4.86333">
        <ele>106</ele>
      </trkpt>
      <trkpt lat="44.91156" lon="4.86334">
        <ele>106</ele>
      </trkpt>
      <trkpt lat="44.91154" lon="4.86336">
        <ele>106</ele>
      </trkpt>
      <trkpt lat="44.91149" lon="4.86344">
        <ele>106</ele>
      </trkpt>
      <trkpt lat="44.91144" lon="4.86366">
        <ele>106</ele>
      </trkpt>
      <trkpt lat="44.91142" lon="4.86384">
        <ele>106</ele>
      </trkpt>
      <trkpt lat="44.91135" lon="4.86402">
        <ele>106</ele>
      </trkpt>
      <trkpt lat="44.91126" lon="4.8642">
        <ele>106</ele>
      </trkpt>
      <trkpt lat="44.91115" lon="4.86436">
        <ele>106</ele>
      </trkpt>
      <trkpt lat="44.91102" lon="4.86443">
        <ele>106</ele>
      </trkpt>
      <trkpt lat="44.91093" lon="4.86446">
        <ele>106</ele>
      </trkpt>
      <trkpt lat="44.91077" lon="4.86452">
        <ele>105</ele>
      </trkpt>
      <trkpt lat="44.91071" lon="4.86453">
        <ele>105</ele>
      </trkpt>
      <trkpt lat="44.91064" lon="4.86451">
        <ele>105</ele>
      </trkpt>
      <trkpt lat="44.9106" lon="4.86447">
        <ele>105</ele>
      </trkpt>
      <trkpt lat="44.91053" lon="4.86431">
        <ele>105</ele>
      </trkpt>
      <trkpt lat="44.91044" lon="4.86409">
        <ele>105</ele>
      </trkpt>
      <trkpt lat="44.91035" lon="4.86389">
        <ele>105</ele>
      </trkpt>
      <trkpt lat="44.91035" lon="4.86389">
        <ele>105</ele>
      </trkpt>
      <trkpt lat="44.91017" lon="4.86348">
        <ele>105</ele>
      </trkpt>
      <trkpt lat="44.91017" lon="4.86348">
        <ele>105</ele>
      </trkpt>
      <trkpt lat="44.91008" lon="4.86328">
        <ele>105</ele>
      </trkpt>
      <trkpt lat="44.91" lon="4.86305">
        <ele>106</ele>
      </trkpt>
      <trkpt lat="44.90995" lon="4.86293">
        <ele>106</ele>
      </trkpt>
      <trkpt lat="44.9099" lon="4.86279">
        <ele>107</ele>
      </trkpt>
      <trkpt lat="44.90986" lon="4.86273">
        <ele>107</ele>
      </trkpt>
      <trkpt lat="44.90981" lon="4.86263">
        <ele>107</ele>
      </trkpt>
      <trkpt lat="44.90976" lon="4.86258">
        <ele>107</ele>
      </trkpt>
      <trkpt lat="44.90973" lon="4.8625">
        <ele>108</ele>
      </trkpt>
      <trkpt lat="44.90969" lon="4.86238">
        <ele>108</ele>
      </trkpt>
      <trkpt lat="44.9097" lon="4.86222">
        <ele>108</ele>
      </trkpt>
      <trkpt lat="44.90971" lon="4.86182">
        <ele>108</ele>
      </trkpt>
      <trkpt lat="44.90973" lon="4.86144">
        <ele>108</ele>
      </trkpt>
      <trkpt lat="44.90976" lon="4.86103">
        <ele>108</ele>
      </trkpt>
      <trkpt lat="44.90977" lon="4.8606">
        <ele>108</ele>
      </trkpt>
      <trkpt lat="44.90979" lon="4.86011">
        <ele>108</ele>
      </trkpt>
      <trkpt lat="44.90981" lon="4.85961">
        <ele>107</ele>
      </trkpt>
      <trkpt lat="44.9099" lon="4.8579">
        <ele>106</ele>
      </trkpt>
      <trkpt lat="44.90991" lon="4.85739">
        <ele>107</ele>
      </trkpt>
      <trkpt lat="44.90994" lon="4.85694">
        <ele>108</ele>
      </trkpt>
      <trkpt lat="44.90998" lon="4.85652">
        <ele>109</ele>
      </trkpt>
      <trkpt lat="44.91" lon="4.85618">
        <ele>109</ele>
      </trkpt>
      <trkpt lat="44.91003" lon="4.856">
        <ele>109</ele>
      </trkpt>
      <trkpt lat="44.91011" lon="4.85573">
        <ele>108</ele>
      </trkpt>
      <trkpt lat="44.91017" lon="4.85557">
        <ele>107</ele>
      </trkpt>
      <trkpt lat="44.91026" lon="4.85534">
        <ele>107</ele>
      </trkpt>
      <trkpt lat="44.91031" lon="4.85512">
        <ele>107</ele>
      </trkpt>
      <trkpt lat="44.91033" lon="4.85501">
        <ele>107</ele>
      </trkpt>
      <trkpt lat="44.91032" lon="4.85491">
        <ele>108</ele>
      </trkpt>
      <trkpt lat="44.91027" lon="4.85484">
        <ele>108</ele>
      </trkpt>
      <trkpt lat="44.91019" lon="4.85479">
        <ele>108</ele>
      </trkpt>
      <trkpt lat="44.9101" lon="4.85476">
        <ele>108</ele>
      </trkpt>
      <trkpt lat="44.91001" lon="4.8547">
        <ele>108</ele>
      </trkpt>
      <trkpt lat="44.90977" lon="4.85453">
        <ele>109</ele>
      </trkpt>
      <trkpt lat="44.90954" lon="4.85439">
        <ele>109</ele>
      </trkpt>
      <trkpt lat="44.90936" lon="4.85427">
        <ele>110</ele>
      </trkpt>
      <trkpt lat="44.90921" lon="4.8542">
        <ele>110</ele>
      </trkpt>
      <trkpt lat="44.90898" lon="4.85411">
        <ele>113</ele>
      </trkpt>
      <trkpt lat="44.9087" lon="4.85403">
        <ele>114</ele>
      </trkpt>
      <trkpt lat="44.90852" lon="4.85398">
        <ele>113</ele>
      </trkpt>
      <trkpt lat="44.90828" lon="4.85393">
        <ele>113</ele>
      </trkpt>
      <trkpt lat="44.90805" lon="4.85389">
        <ele>114</ele>
      </trkpt>
      <trkpt lat="44.90787" lon="4.85386">
        <ele>114</ele>
      </trkpt>
      <trkpt lat="44.90757" lon="4.85383">
        <ele>114</ele>
      </trkpt>
      <trkpt lat="44.9074" lon="4.85379">
        <ele>113</ele>
      </trkpt>
      <trkpt lat="44.90722" lon="4.85376">
        <ele>113</ele>
      </trkpt>
      <trkpt lat="44.90703" lon="4.85377">
        <ele>113</ele>
      </trkpt>
      <trkpt lat="44.90682" lon="4.85375">
        <ele>113</ele>
      </trkpt>
      <trkpt lat="44.9066" lon="4.85375">
        <ele>112</ele>
      </trkpt>
      <trkpt lat="44.90631" lon="4.85375">
        <ele>112</ele>
      </trkpt>
      <trkpt lat="44.9061" lon="4.85375">
        <ele>112</ele>
      </trkpt>
      <trkpt lat="44.9061" lon="4.85375">
        <ele>112</ele>
      </trkpt>
      <trkpt lat="44.90571" lon="4.85374">
        <ele>112</ele>
      </trkpt>
      <trkpt lat="44.90546" lon="4.85374">
        <ele>112</ele>
      </trkpt>
      <trkpt lat="44.90522" lon="4.85372">
        <ele>112</ele>
      </trkpt>
      <trkpt lat="44.90495" lon="4.8537">
        <ele>111</ele>
      </trkpt>
      <trkpt lat="44.90456" lon="4.85368">
        <ele>111</ele>
      </trkpt>
      <trkpt lat="44.90433" lon="4.85365">
        <ele>110</ele>
      </trkpt>
      <trkpt lat="44.90406" lon="4.85358">
        <ele>110</ele>
      </trkpt>
      <trkpt lat="44.90388" lon="4.85354">
        <ele>110</ele>
      </trkpt>
      <trkpt lat="44.9036" lon="4.85348">
        <ele>110</ele>
      </trkpt>
      <trkpt lat="44.90328" lon="4.85338">
        <ele>110</ele>
      </trkpt>
      <trkpt lat="44.90301" lon="4.85328">
        <ele>117</ele>
      </trkpt>
      <trkpt lat="44.90223" lon="4.85296">
        <ele>114</ele>
      </trkpt>
      <trkpt lat="44.90195" lon="4.85283">
        <ele>114</ele>
      </trkpt>
      <trkpt lat="44.90177" lon="4.85273">
        <ele>114</ele>
      </trkpt>
      <trkpt lat="44.90154" lon="4.85266">
        <ele>111</ele>
      </trkpt>
      <trkpt lat="44.90129" lon="4.85259">
        <ele>110</ele>
      </trkpt>
      <trkpt lat="44.90089" lon="4.85249">
        <ele>114</ele>
      </trkpt>
      <trkpt lat="44.90049" lon="4.85241">
        <ele>116</ele>
      </trkpt>
      <trkpt lat="44.90023" lon="4.85236">
        <ele>114</ele>
      </trkpt>
      <trkpt lat="44.89985" lon="4.85232">
        <ele>110</ele>
      </trkpt>
      <trkpt lat="44.89924" lon="4.85223">
        <ele>111</ele>
      </trkpt>
      <trkpt lat="44.89888" lon="4.8522">
        <ele>110</ele>
      </trkpt>
      <trkpt lat="44.89847" lon="4.85216">
        <ele>110</ele>
      </trkpt>
      <trkpt lat="44.89804" lon="4.85211">
        <ele>108</ele>
      </trkpt>
      <trkpt lat="44.89775" lon="4.85209">
        <ele>108</ele>
      </trkpt>
      <trkpt lat="44.89744" lon="4.85205">
        <ele>106</ele>
      </trkpt>
      <trkpt lat="44.89704" lon="4.85202">
        <ele>106</ele>
      </trkpt>
      <trkpt lat="44.89665" lon="4.852">
        <ele>105</ele>
      </trkpt>
      <trkpt lat="44.89614" lon="4.85195">
        <ele>106</ele>
      </trkpt>
      <trkpt lat="44.89532" lon="4.85188">
        <ele>105</ele>
      </trkpt>
      <trkpt lat="44.8949" lon="4.85183">
        <ele>106</ele>
      </trkpt>
      <trkpt lat="44.89455" lon="4.85179">
        <ele>106</ele>
      </trkpt>
      <trkpt lat="44.89379" lon="4.85178">
        <ele>105</ele>
      </trkpt>
      <trkpt lat="44.89309" lon="4.85173">
        <ele>105</ele>
      </trkpt>
      <trkpt lat="44.89287" lon="4.85173">
        <ele>106</ele>
      </trkpt>
      <trkpt lat="44.89251" lon="4.85175">
        <ele>107</ele>
      </trkpt>
      <trkpt lat="44.89214" lon="4.85182">
        <ele>108</ele>
      </trkpt>
      <trkpt lat="44.89174" lon="4.85192">
        <ele>109</ele>
      </trkpt>
      <trkpt lat="44.89134" lon="4.85201">
        <ele>109</ele>
      </trkpt>
      <trkpt lat="44.89084" lon="4.85213">
        <ele>109</ele>
      </trkpt>
      <trkpt lat="44.89021" lon="4.85227">
        <ele>109</ele>
      </trkpt>
      <trkpt lat="44.88978" lon="4.85237">
        <ele>109</ele>
      </trkpt>
      <trkpt lat="44.88978" lon="4.85237">
        <ele>109</ele>
      </trkpt>
      <trkpt lat="44.88936" lon="4.85249">
        <ele>108</ele>
      </trkpt>
      <trkpt lat="44.88909" lon="4.85255">
        <ele>107</ele>
      </trkpt>
      <trkpt lat="44.88875" lon="4.85265">
        <ele>106</ele>
      </trkpt>
      <trkpt lat="44.88848" lon="4.85277">
        <ele>106</ele>
      </trkpt>
      <trkpt lat="44.88809" lon="4.85298">
        <ele>106</ele>
      </trkpt>
      <trkpt lat="44.88783" lon="4.85311">
        <ele>106</ele>
      </trkpt>
      <trkpt lat="44.88743" lon="4.85333">
        <ele>105</ele>
      </trkpt>
      <trkpt lat="44.88697" lon="4.85357">
        <ele>104</ele>
      </trkpt>
      <trkpt lat="44.88648" lon="4.85392">
        <ele>104</ele>
      </trkpt>
      <trkpt lat="44.88615" lon="4.85416">
        <ele>104</ele>
      </trkpt>
      <trkpt lat="44.8857" lon="4.85445">
        <ele>104</ele>
      </trkpt>
      <trkpt lat="44.88557" lon="4.85455">
        <ele>104</ele>
      </trkpt>
      <trkpt lat="44.88543" lon="4.85466">
        <ele>105</ele>
      </trkpt>
      <trkpt lat="44.88543" lon="4.85466">
        <ele>105</ele>
      </trkpt>
      <trkpt lat="44.88533" lon="4.85467">
        <ele>105</ele>
      </trkpt>
      <trkpt lat="44.88525" lon="4.85468">
        <ele>105</ele>
      </trkpt>
      <trkpt lat="44.88519" lon="4.85466">
        <ele>105</ele>
      </trkpt>
      <trkpt lat="44.8851" lon="4.85465">
        <ele>105</ele>
      </trkpt>
      <trkpt lat="44.88498" lon="4.85468">
        <ele>104</ele>
      </trkpt>
      <trkpt lat="44.88475" lon="4.85475">
        <ele>104</ele>
      </trkpt>
      <trkpt lat="44.88455" lon="4.85484">
        <ele>103</ele>
      </trkpt>
      <trkpt lat="44.88434" lon="4.85488">
        <ele>103</ele>
      </trkpt>
      <trkpt lat="44.884" lon="4.85492">
        <ele>102</ele>
      </trkpt>
      <trkpt lat="44.88361" lon="4.85495">
        <ele>102</ele>
      </trkpt>
      <trkpt lat="44.88332" lon="4.85495">
        <ele>103</ele>
      </trkpt>
      <trkpt lat="44.88315" lon="4.85495">
        <ele>102</ele>
      </trkpt>
      <trkpt lat="44.88291" lon="4.85483">
        <ele>102</ele>
      </trkpt>
      <trkpt lat="44.88266" lon="4.85467">
        <ele>102</ele>
      </trkpt>
      <trkpt lat="44.88234" lon="4.8545">
        <ele>102</ele>
      </trkpt>
      <trkpt lat="44.88198" lon="4.85431">
        <ele>102</ele>
      </trkpt>
      <trkpt lat="44.8817" lon="4.85417">
        <ele>102</ele>
      </trkpt>
      <trkpt lat="44.88149" lon="4.85412">
        <ele>102</ele>
      </trkpt>
      <trkpt lat="44.88126" lon="4.85406">
        <ele>102</ele>
      </trkpt>
      <trkpt lat="44.88108" lon="4.85403">
        <ele>102</ele>
      </trkpt>
      <trkpt lat="44.88099" lon="4.85399">
        <ele>102</ele>
      </trkpt>
      <trkpt lat="44.88091" lon="4.85393">
        <ele>102</ele>
      </trkpt>
      <trkpt lat="44.88083" lon="4.85376">
        <ele>102</ele>
      </trkpt>
      <trkpt lat="44.88071" lon="4.85349">
        <ele>102</ele>
      </trkpt>
      <trkpt lat="44.88052" lon="4.85312">
        <ele>103</ele>
      </trkpt>
      <trkpt lat="44.88036" lon="4.85276">
        <ele>104</ele>
      </trkpt>
      <trkpt lat="44.88024" lon="4.85256">
        <ele>104</ele>
      </trkpt>
      <trkpt lat="44.88017" lon="4.8525">
        <ele>106</ele>
      </trkpt>
      <trkpt lat="44.88001" lon="4.85246">
        <ele>105</ele>
      </trkpt>
      <trkpt lat="44.87991" lon="4.85245">
        <ele>106</ele>
      </trkpt>
      <trkpt lat="44.8798" lon="4.85244">
        <ele>106</ele>
      </trkpt>
      <trkpt lat="44.87971" lon="4.85242">
        <ele>107</ele>
      </trkpt>
      <trkpt lat="44.87962" lon="4.85239">
        <ele>107</ele>
      </trkpt>
      <trkpt lat="44.87954" lon="4.85235">
        <ele>107</ele>
      </trkpt>
      <trkpt lat="44.87948" lon="4.85229">
        <ele>107</ele>
      </trkpt>
      <trkpt lat="44.87942" lon="4.85219">
        <ele>107</ele>
      </trkpt>
      <trkpt lat="44.87938" lon="4.85207">
        <ele>108</ele>
      </trkpt>
      <trkpt lat="44.87937" lon="4.8519">
        <ele>108</ele>
      </trkpt>
      <trkpt lat="44.87943" lon="4.85163">
        <ele>108</ele>
      </trkpt>
      <trkpt lat="44.87952" lon="4.85137">
        <ele>108</ele>
      </trkpt>
      <trkpt lat="44.87962" lon="4.85118">
        <ele>108</ele>
      </trkpt>
      <trkpt lat="44.87962" lon="4.85118">
        <ele>108</ele>
      </trkpt>
      <trkpt lat="44.87984" lon="4.85096">
        <ele>108</ele>
      </trkpt>
      <trkpt lat="44.88004" lon="4.85079">
        <ele>107</ele>
      </trkpt>
      <trkpt lat="44.88019" lon="4.85073">
        <ele>106</ele>
      </trkpt>
      <trkpt lat="44.88044" lon="4.85071">
        <ele>106</ele>
      </trkpt>
      <trkpt lat="44.88061" lon="4.85072">
        <ele>106</ele>
      </trkpt>
      <trkpt lat="44.88072" lon="4.85073">
        <ele>106</ele>
      </trkpt>
      <trkpt lat="44.88076" lon="4.85071">
        <ele>106</ele>
      </trkpt>
      <trkpt lat="44.88076" lon="4.85071">
        <ele>106</ele>
      </trkpt>
      <trkpt lat="44.88077" lon="4.85067">
        <ele>106</ele>
      </trkpt>
      <trkpt lat="44.88073" lon="4.85064">
        <ele>106</ele>
      </trkpt>
      <trkpt lat="44.88046" lon="4.85061">
        <ele>106</ele>
      </trkpt>
      <trkpt lat="44.88019" lon="4.85058">
        <ele>106</ele>
      </trkpt>
      <trkpt lat="44.87997" lon="4.85053">
        <ele>107</ele>
      </trkpt>
      <trkpt lat="44.87953" lon="4.85041">
        <ele>107</ele>
      </trkpt>
      <trkpt lat="44.87918" lon="4.85032">
        <ele>107</ele>
      </trkpt>
      <trkpt lat="44.87892" lon="4.85027">
        <ele>106</ele>
      </trkpt>
      <trkpt lat="44.87868" lon="4.85021">
        <ele>106</ele>
      </trkpt>
      <trkpt lat="44.87844" lon="4.85012">
        <ele>106</ele>
      </trkpt>
      <trkpt lat="44.87827" lon="4.85005">
        <ele>105</ele>
      </trkpt>
      <trkpt lat="44.8781" lon="4.85001">
        <ele>105</ele>
      </trkpt>
      <trkpt lat="44.87795" lon="4.85">
        <ele>105</ele>
      </trkpt>
      <trkpt lat="44.8777" lon="4.85002">
        <ele>104</ele>
      </trkpt>
      <trkpt lat="44.87745" lon="4.8501">
        <ele>104</ele>
      </trkpt>
      <trkpt lat="44.87716" lon="4.85024">
        <ele>104</ele>
      </trkpt>
      <trkpt lat="44.87682" lon="4.85039">
        <ele>104</ele>
      </trkpt>
      <trkpt lat="44.87647" lon="4.85052">
        <ele>104</ele>
      </trkpt>
      <trkpt lat="44.87616" lon="4.85059">
        <ele>104</ele>
      </trkpt>
      <trkpt lat="44.87589" lon="4.85061">
        <ele>104</ele>
      </trkpt>
      <trkpt lat="44.8755" lon="4.8506">
        <ele>103</ele>
      </trkpt>
      <trkpt lat="44.87518" lon="4.8506">
        <ele>103</ele>
      </trkpt>
      <trkpt lat="44.87495" lon="4.85054">
        <ele>102</ele>
      </trkpt>
      <trkpt lat="44.87466" lon="4.85044">
        <ele>102</ele>
      </trkpt>
      <trkpt lat="44.87429" lon="4.85034">
        <ele>102</ele>
      </trkpt>
      <trkpt lat="44.87396" lon="4.85024">
        <ele>102</ele>
      </trkpt>
      <trkpt lat="44.87374" lon="4.85017">
        <ele>102</ele>
      </trkpt>
      <trkpt lat="44.87354" lon="4.85012">
        <ele>103</ele>
      </trkpt>
      <trkpt lat="44.8734" lon="4.85003">
        <ele>104</ele>
      </trkpt>
      <trkpt lat="44.87327" lon="4.84995">
        <ele>104</ele>
      </trkpt>
      <trkpt lat="44.87316" lon="4.84984">
        <ele>104</ele>
      </trkpt>
      <trkpt lat="44.87305" lon="4.84973">
        <ele>104</ele>
      </trkpt>
      <trkpt lat="44.87293" lon="4.84965">
        <ele>104</ele>
      </trkpt>
      <trkpt lat="44.87275" lon="4.8496">
        <ele>105</ele>
      </trkpt>
      <trkpt lat="44.8726" lon="4.84957">
        <ele>105</ele>
      </trkpt>
      <trkpt lat="44.87229" lon="4.84947">
        <ele>105</ele>
      </trkpt>
      <trkpt lat="44.87189" lon="4.84936">
        <ele>105</ele>
      </trkpt>
      <trkpt lat="44.87154" lon="4.84925">
        <ele>104</ele>
      </trkpt>
      <trkpt lat="44.87138" lon="4.84922">
        <ele>104</ele>
      </trkpt>
      <trkpt lat="44.87101" lon="4.84913">
        <ele>104</ele>
      </trkpt>
      <trkpt lat="44.87064" lon="4.84907">
        <ele>105</ele>
      </trkpt>
      <trkpt lat="44.87034" lon="4.84902">
        <ele>104</ele>
      </trkpt>
      <trkpt lat="44.87008" lon="4.84895">
        <ele>105</ele>
      </trkpt>
      <trkpt lat="44.86987" lon="4.8489">
        <ele>105</ele>
      </trkpt>
      <trkpt lat="44.86963" lon="4.84886">
        <ele>106</ele>
      </trkpt>
      <trkpt lat="44.86943" lon="4.84882">
        <ele>106</ele>
      </trkpt>
      <trkpt lat="44.86932" lon="4.84877">
        <ele>106</ele>
      </trkpt>
      <trkpt lat="44.86922" lon="4.84869">
        <ele>106</ele>
      </trkpt>
      <trkpt lat="44.86917" lon="4.84865">
        <ele>106</ele>
      </trkpt>
      <trkpt lat="44.86911" lon="4.84863">
        <ele>106</ele>
      </trkpt>
      <trkpt lat="44.86903" lon="4.84862">
        <ele>106</ele>
      </trkpt>
      <trkpt lat="44.86893" lon="4.84864">
        <ele>106</ele>
      </trkpt>
      <trkpt lat="44.86889" lon="4.84863">
        <ele>106</ele>
      </trkpt>
      <trkpt lat="44.86886" lon="4.8486">
        <ele>106</ele>
      </trkpt>
      <trkpt lat="44.86886" lon="4.8486">
        <ele>106</ele>
      </trkpt>
      <trkpt lat="44.86887" lon="4.84855">
        <ele>106</ele>
      </trkpt>
      <trkpt lat="44.86888" lon="4.84851">
        <ele>106</ele>
      </trkpt>
      <trkpt lat="44.86895" lon="4.84837">
        <ele>106</ele>
      </trkpt>
      <trkpt lat="44.86905" lon="4.84819">
        <ele>106</ele>
      </trkpt>
      <trkpt lat="44.86915" lon="4.84793">
        <ele>105</ele>
      </trkpt>
      <trkpt lat="44.8693" lon="4.84764">
        <ele>104</ele>
      </trkpt>
      <trkpt lat="44.86941" lon="4.84741">
        <ele>104</ele>
      </trkpt>
      <trkpt lat="44.86968" lon="4.84681">
        <ele>105</ele>
      </trkpt>
      <trkpt lat="44.86994" lon="4.84629">
        <ele>105</ele>
      </trkpt>
      <trkpt lat="44.87019" lon="4.84575">
        <ele>106</ele>
      </trkpt>
      <trkpt lat="44.8704" lon="4.84536">
        <ele>106</ele>
      </trkpt>
      <trkpt lat="44.8706" lon="4.84501">
        <ele>106</ele>
      </trkpt>
      <trkpt lat="44.87069" lon="4.84482">
        <ele>106</ele>
      </trkpt>
      <trkpt lat="44.87075" lon="4.84473">
        <ele>106</ele>
      </trkpt>
      <trkpt lat="44.87079" lon="4.84469">
        <ele>106</ele>
      </trkpt>
      <trkpt lat="44.87081" lon="4.84462">
        <ele>106</ele>
      </trkpt>
      <trkpt lat="44.87081" lon="4.84454">
        <ele>107</ele>
      </trkpt>
      <trkpt lat="44.87079" lon="4.84451">
        <ele>107</ele>
      </trkpt>
      <trkpt lat="44.87074" lon="4.84445">
        <ele>107</ele>
      </trkpt>
      <trkpt lat="44.8706" lon="4.84434">
        <ele>107</ele>
      </trkpt>
      <trkpt lat="44.87045" lon="4.84418">
        <ele>107</ele>
      </trkpt>
      <trkpt lat="44.87024" lon="4.84404">
        <ele>107</ele>
      </trkpt>
      <trkpt lat="44.86999" lon="4.84383">
        <ele>106</ele>
      </trkpt>
      <trkpt lat="44.86974" lon="4.84362">
        <ele>106</ele>
      </trkpt>
      <trkpt lat="44.86938" lon="4.84333">
        <ele>105</ele>
      </trkpt>
      <trkpt lat="44.86897" lon="4.84301">
        <ele>105</ele>
      </trkpt>
      <trkpt lat="44.86851" lon="4.84265">
        <ele>106</ele>
      </trkpt>
      <trkpt lat="44.86803" lon="4.84226">
        <ele>107</ele>
      </trkpt>
      <trkpt lat="44.8675" lon="4.84186">
        <ele>106</ele>
      </trkpt>
      <trkpt lat="44.86714" lon="4.84157">
        <ele>105</ele>
      </trkpt>
      <trkpt lat="44.86677" lon="4.84127">
        <ele>105</ele>
      </trkpt>
      <trkpt lat="44.86638" lon="4.84098">
        <ele>105</ele>
      </trkpt>
      <trkpt lat="44.86594" lon="4.84065">
        <ele>106</ele>
      </trkpt>
      <trkpt lat="44.86585" lon="4.84063">
        <ele>106</ele>
      </trkpt>
      <trkpt lat="44.86571" lon="4.84054">
        <ele>106</ele>
      </trkpt>
      <trkpt lat="44.8655" lon="4.84036">
        <ele>106</ele>
      </trkpt>
      <trkpt lat="44.8653" lon="4.8402">
        <ele>106</ele>
      </trkpt>
      <trkpt lat="44.86508" lon="4.84004">
        <ele>106</ele>
      </trkpt>
      <trkpt lat="44.86486" lon="4.83983">
        <ele>106</ele>
      </trkpt>
      <trkpt lat="44.86448" lon="4.83957">
        <ele>107</ele>
      </trkpt>
      <trkpt lat="44.86425" lon="4.83936">
        <ele>107</ele>
      </trkpt>
      <trkpt lat="44.86408" lon="4.8392">
        <ele>107</ele>
      </trkpt>
      <trkpt lat="44.86385" lon="4.83903">
        <ele>108</ele>
      </trkpt>
      <trkpt lat="44.86371" lon="4.83894">
        <ele>108</ele>
      </trkpt>
      <trkpt lat="44.86363" lon="4.83884">
        <ele>108</ele>
      </trkpt>
      <trkpt lat="44.86347" lon="4.83867">
        <ele>108</ele>
      </trkpt>
      <trkpt lat="44.86336" lon="4.83858">
        <ele>108</ele>
      </trkpt>
      <trkpt lat="44.86328" lon="4.83853">
        <ele>108</ele>
      </trkpt>
      <trkpt lat="44.86321" lon="4.83851">
        <ele>108</ele>
      </trkpt>
      <trkpt lat="44.86315" lon="4.8385">
        <ele>108</ele>
      </trkpt>
      <trkpt lat="44.86306" lon="4.83842">
        <ele>108</ele>
      </trkpt>
      <trkpt lat="44.86289" lon="4.83826">
        <ele>108</ele>
      </trkpt>
      <trkpt lat="44.86268" lon="4.83811">
        <ele>107</ele>
      </trkpt>
      <trkpt lat="44.86253" lon="4.83799">
        <ele>107</ele>
      </trkpt>
      <trkpt lat="44.8623" lon="4.83781">
        <ele>108</ele>
      </trkpt>
      <trkpt lat="44.86209" lon="4.83762">
        <ele>108</ele>
      </trkpt>
      <trkpt lat="44.862" lon="4.83754">
        <ele>108</ele>
      </trkpt>
      <trkpt lat="44.86192" lon="4.83751">
        <ele>108</ele>
      </trkpt>
      <trkpt lat="44.86183" lon="4.83752">
        <ele>108</ele>
      </trkpt>
      <trkpt lat="44.86169" lon="4.83761">
        <ele>109</ele>
      </trkpt>
      <trkpt lat="44.86162" lon="4.83769">
        <ele>109</ele>
      </trkpt>
      <trkpt lat="44.86156" lon="4.83772">
        <ele>109</ele>
      </trkpt>
      <trkpt lat="44.86153" lon="4.83772">
        <ele>109</ele>
      </trkpt>
      <trkpt lat="44.86147" lon="4.83767">
        <ele>109</ele>
      </trkpt>
      <trkpt lat="44.86142" lon="4.83761">
        <ele>109</ele>
      </trkpt>
      <trkpt lat="44.86131" lon="4.8375">
        <ele>109</ele>
      </trkpt>
      <trkpt lat="44.86116" lon="4.83736">
        <ele>109</ele>
      </trkpt>
      <trkpt lat="44.86082" lon="4.83707">
        <ele>109</ele>
      </trkpt>
      <trkpt lat="44.86075" lon="4.83699">
        <ele>109</ele>
      </trkpt>
      <trkpt lat="44.86072" lon="4.83689">
        <ele>109</ele>
      </trkpt>
      <trkpt lat="44.86065" lon="4.83681">
        <ele>110</ele>
      </trkpt>
      <trkpt lat="44.86057" lon="4.83675">
        <ele>110</ele>
      </trkpt>
      <trkpt lat="44.86051" lon="4.83671">
        <ele>110</ele>
      </trkpt>
      <trkpt lat="44.86041" lon="4.83662">
        <ele>110</ele>
      </trkpt>
      <trkpt lat="44.86031" lon="4.83653">
        <ele>110</ele>
      </trkpt>
      <trkpt lat="44.86023" lon="4.8365">
        <ele>110</ele>
      </trkpt>
      <trkpt lat="44.86013" lon="4.83646">
        <ele>110</ele>
      </trkpt>
      <trkpt lat="44.86008" lon="4.83633">
        <ele>111</ele>
      </trkpt>
      <trkpt lat="44.86006" lon="4.83625">
        <ele>111</ele>
      </trkpt>
      <trkpt lat="44.85996" lon="4.83615">
        <ele>110</ele>
      </trkpt>
      <trkpt lat="44.85986" lon="4.83608">
        <ele>110</ele>
      </trkpt>
      <trkpt lat="44.85972" lon="4.83597">
        <ele>110</ele>
      </trkpt>
      <trkpt lat="44.85959" lon="4.83579">
        <ele>109</ele>
      </trkpt>
      <trkpt lat="44.85953" lon="4.83567">
        <ele>109</ele>
      </trkpt>
      <trkpt lat="44.85948" lon="4.83558">
        <ele>109</ele>
      </trkpt>
      <trkpt lat="44.85943" lon="4.83555">
        <ele>109</ele>
      </trkpt>
      <trkpt lat="44.85937" lon="4.83556">
        <ele>109</ele>
      </trkpt>
      <trkpt lat="44.85926" lon="4.83561">
        <ele>109</ele>
      </trkpt>
      <trkpt lat="44.85913" lon="4.8357">
        <ele>108</ele>
      </trkpt>
      <trkpt lat="44.85902" lon="4.83579">
        <ele>108</ele>
      </trkpt>
      <trkpt lat="44.85875" lon="4.83595">
        <ele>107</ele>
      </trkpt>
      <trkpt lat="44.85851" lon="4.8361">
        <ele>107</ele>
      </trkpt>
      <trkpt lat="44.85819" lon="4.83635">
        <ele>106</ele>
      </trkpt>
      <trkpt lat="44.85785" lon="4.83655">
        <ele>106</ele>
      </trkpt>
      <trkpt lat="44.85756" lon="4.83679">
        <ele>106</ele>
      </trkpt>
      <trkpt lat="44.85736" lon="4.83697">
        <ele>106</ele>
      </trkpt>
      <trkpt lat="44.85704" lon="4.83719">
        <ele>106</ele>
      </trkpt>
      <trkpt lat="44.8567" lon="4.83744">
        <ele>106</ele>
      </trkpt>
      <trkpt lat="44.85637" lon="4.83766">
        <ele>106</ele>
      </trkpt>
      <trkpt lat="44.85626" lon="4.83775">
        <ele>106</ele>
      </trkpt>
      <trkpt lat="44.85606" lon="4.83783">
        <ele>106</ele>
      </trkpt>
      <trkpt lat="44.85583" lon="4.83787">
        <ele>105</ele>
      </trkpt>
      <trkpt lat="44.8556" lon="4.83791">
        <ele>105</ele>
      </trkpt>
      <trkpt lat="44.85529" lon="4.83797">
        <ele>105</ele>
      </trkpt>
      <trkpt lat="44.85529" lon="4.83797">
        <ele>105</ele>
      </trkpt>
      <trkpt lat="44.85504" lon="4.83804">
        <ele>105</ele>
      </trkpt>
      <trkpt lat="44.85497" lon="4.83808">
        <ele>106</ele>
      </trkpt>
      <trkpt lat="44.85492" lon="4.83815">
        <ele>106</ele>
      </trkpt>
      <trkpt lat="44.8549" lon="4.83822">
        <ele>106</ele>
      </trkpt>
      <trkpt lat="44.85487" lon="4.83826">
        <ele>106</ele>
      </trkpt>
      <trkpt lat="44.85481" lon="4.8383">
        <ele>106</ele>
      </trkpt>
      <trkpt lat="44.85476" lon="4.8383">
        <ele>106</ele>
      </trkpt>
      <trkpt lat="44.8547" lon="4.83828">
        <ele>106</ele>
      </trkpt>
      <trkpt lat="44.85467" lon="4.83822">
        <ele>106</ele>
      </trkpt>
      <trkpt lat="44.85467" lon="4.83815">
        <ele>106</ele>
      </trkpt>
      <trkpt lat="44.85469" lon="4.83791">
        <ele>105</ele>
      </trkpt>
      <trkpt lat="44.85474" lon="4.83758">
        <ele>105</ele>
      </trkpt>
      <trkpt lat="44.85479" lon="4.83729">
        <ele>103</ele>
      </trkpt>
      <trkpt lat="44.85483" lon="4.83709">
        <ele>102</ele>
      </trkpt>
      <trkpt lat="44.85485" lon="4.83688">
        <ele>101</ele>
      </trkpt>
      <trkpt lat="44.85485" lon="4.83672">
        <ele>101</ele>
      </trkpt>
      <trkpt lat="44.85484" lon="4.83662">
        <ele>101</ele>
      </trkpt>
      <trkpt lat="44.8548" lon="4.83657">
        <ele>101</ele>
      </trkpt>
      <trkpt lat="44.85474" lon="4.8365">
        <ele>101</ele>
      </trkpt>
      <trkpt lat="44.8546" lon="4.83645">
        <ele>101</ele>
      </trkpt>
      <trkpt lat="44.85444" lon="4.83644">
        <ele>102</ele>
      </trkpt>
      <trkpt lat="44.8542" lon="4.83639">
        <ele>102</ele>
      </trkpt>
      <trkpt lat="44.85387" lon="4.83634">
        <ele>103</ele>
      </trkpt>
      <trkpt lat="44.85357" lon="4.8363">
        <ele>103</ele>
      </trkpt>
      <trkpt lat="44.85335" lon="4.83625">
        <ele>103</ele>
      </trkpt>
      <trkpt lat="44.85318" lon="4.83616">
        <ele>102</ele>
      </trkpt>
      <trkpt lat="44.85318" lon="4.83616">
        <ele>102</ele>
      </trkpt>
      <trkpt lat="44.85298" lon="4.83603">
        <ele>102</ele>
      </trkpt>
      <trkpt lat="44.8528" lon="4.83583">
        <ele>103</ele>
      </trkpt>
      <trkpt lat="44.85249" lon="4.83534">
        <ele>102</ele>
      </trkpt>
      <trkpt lat="44.85224" lon="4.83496">
        <ele>103</ele>
      </trkpt>
      <trkpt lat="44.85206" lon="4.83466">
        <ele>103</ele>
      </trkpt>
      <trkpt lat="44.85184" lon="4.83431">
        <ele>103</ele>
      </trkpt>
      <trkpt lat="44.85157" lon="4.83392">
        <ele>103</ele>
      </trkpt>
      <trkpt lat="44.85137" lon="4.83359">
        <ele>103</ele>
      </trkpt>
      <trkpt lat="44.8511" lon="4.83315">
        <ele>102</ele>
      </trkpt>
      <trkpt lat="44.85088" lon="4.83278">
        <ele>102</ele>
      </trkpt>
      <trkpt lat="44.85072" lon="4.83252">
        <ele>101</ele>
      </trkpt>
      <trkpt lat="44.85045" lon="4.83209">
        <ele>102</ele>
      </trkpt>
      <trkpt lat="44.85017" lon="4.83164">
        <ele>102</ele>
      </trkpt>
      <trkpt lat="44.84995" lon="4.8313">
        <ele>102</ele>
      </trkpt>
      <trkpt lat="44.84977" lon="4.831">
        <ele>101</ele>
      </trkpt>
      <trkpt lat="44.84955" lon="4.83067">
        <ele>100</ele>
      </trkpt>
      <trkpt lat="44.84939" lon="4.83038">
        <ele>100</ele>
      </trkpt>
      <trkpt lat="44.84916" lon="4.83001">
        <ele>99</ele>
      </trkpt>
      <trkpt lat="44.84888" lon="4.82957">
        <ele>100</ele>
      </trkpt>
      <trkpt lat="44.84861" lon="4.82911">
        <ele>100</ele>
      </trkpt>
      <trkpt lat="44.84833" lon="4.82866">
        <ele>100</ele>
      </trkpt>
      <trkpt lat="44.84799" lon="4.82811">
        <ele>98</ele>
      </trkpt>
      <trkpt lat="44.84755" lon="4.82742">
        <ele>97</ele>
      </trkpt>
      <trkpt lat="44.84717" lon="4.82678">
        <ele>97</ele>
      </trkpt>
      <trkpt lat="44.84677" lon="4.82613">
        <ele>96</ele>
      </trkpt>
      <trkpt lat="44.84632" lon="4.82537">
        <ele>98</ele>
      </trkpt>
      <trkpt lat="44.84581" lon="4.82459">
        <ele>98</ele>
      </trkpt>
      <trkpt lat="44.84581" lon="4.82459">
        <ele>98</ele>
      </trkpt>
      <trkpt lat="44.84569" lon="4.82447">
        <ele>98</ele>
      </trkpt>
      <trkpt lat="44.8456" lon="4.82431">
        <ele>98</ele>
      </trkpt>
      <trkpt lat="44.84541" lon="4.824">
        <ele>99</ele>
      </trkpt>
      <trkpt lat="44.84528" lon="4.82382">
        <ele>99</ele>
      </trkpt>
      <trkpt lat="44.84505" lon="4.8235">
        <ele>98</ele>
      </trkpt>
      <trkpt lat="44.8448" lon="4.82319">
        <ele>100</ele>
      </trkpt>
      <trkpt lat="44.84458" lon="4.82282">
        <ele>101</ele>
      </trkpt>
      <trkpt lat="44.84448" lon="4.82265">
        <ele>101</ele>
      </trkpt>
      <trkpt lat="44.84442" lon="4.82256">
        <ele>101</ele>
      </trkpt>
      <trkpt lat="44.84435" lon="4.82249">
        <ele>103</ele>
      </trkpt>
      <trkpt lat="44.84428" lon="4.82245">
        <ele>103</ele>
      </trkpt>
      <trkpt lat="44.84422" lon="4.82241">
        <ele>103</ele>
      </trkpt>
      <trkpt lat="44.84417" lon="4.82235">
        <ele>103</ele>
      </trkpt>
      <trkpt lat="44.84414" lon="4.82224">
        <ele>104</ele>
      </trkpt>
      <trkpt lat="44.84413" lon="4.82214">
        <ele>104</ele>
      </trkpt>
      <trkpt lat="44.84416" lon="4.82199">
        <ele>105</ele>
      </trkpt>
      <trkpt lat="44.84425" lon="4.8219">
        <ele>104</ele>
      </trkpt>
      <trkpt lat="44.84436" lon="4.82179">
        <ele>104</ele>
      </trkpt>
      <trkpt lat="44.84445" lon="4.82169">
        <ele>104</ele>
      </trkpt>
      <trkpt lat="44.8445" lon="4.82156">
        <ele>106</ele>
      </trkpt>
      <trkpt lat="44.8445" lon="4.82141">
        <ele>106</ele>
      </trkpt>
      <trkpt lat="44.84446" lon="4.82128">
        <ele>106</ele>
      </trkpt>
      <trkpt lat="44.84437" lon="4.82118">
        <ele>106</ele>
      </trkpt>
      <trkpt lat="44.84423" lon="4.82108">
        <ele>105</ele>
      </trkpt>
      <trkpt lat="44.84398" lon="4.82096">
        <ele>105</ele>
      </trkpt>
      <trkpt lat="44.84358" lon="4.82063">
        <ele>105</ele>
      </trkpt>
      <trkpt lat="44.84325" lon="4.82037">
        <ele>104</ele>
      </trkpt>
      <trkpt lat="44.84295" lon="4.82005">
        <ele>104</ele>
      </trkpt>
      <trkpt lat="44.84279" lon="4.81992">
        <ele>104</ele>
      </trkpt>
      <trkpt lat="44.84252" lon="4.81973">
        <ele>104</ele>
      </trkpt>
      <trkpt lat="44.84243" lon="4.8197">
        <ele>104</ele>
      </trkpt>
      <trkpt lat="44.84229" lon="4.81968">
        <ele>104</ele>
      </trkpt>
      <trkpt lat="44.84204" lon="4.81949">
        <ele>104</ele>
      </trkpt>
      <trkpt lat="44.84183" lon="4.81932">
        <ele>105</ele>
      </trkpt>
      <trkpt lat="44.84154" lon="4.81911">
        <ele>106</ele>
      </trkpt>
      <trkpt lat="44.84119" lon="4.81886">
        <ele>107</ele>
      </trkpt>
      <trkpt lat="44.84086" lon="4.81858">
        <ele>107</ele>
      </trkpt>
      <trkpt lat="44.84074" lon="4.8185">
        <ele>105</ele>
      </trkpt>
      <trkpt lat="44.84054" lon="4.8184">
        <ele>103</ele>
      </trkpt>
      <trkpt lat="44.84033" lon="4.8183">
        <ele>102</ele>
      </trkpt>
      <trkpt lat="44.84016" lon="4.81821">
        <ele>100</ele>
      </trkpt>
      <trkpt lat="44.83995" lon="4.81809">
        <ele>99</ele>
      </trkpt>
      <trkpt lat="44.83971" lon="4.8179">
        <ele>102</ele>
      </trkpt>
      <trkpt lat="44.83941" lon="4.81767">
        <ele>104</ele>
      </trkpt>
      <trkpt lat="44.83911" lon="4.81745">
        <ele>107</ele>
      </trkpt>
      <trkpt lat="44.83886" lon="4.81728">
        <ele>105</ele>
      </trkpt>
      <trkpt lat="44.83863" lon="4.81711">
        <ele>104</ele>
      </trkpt>
      <trkpt lat="44.83828" lon="4.81693">
        <ele>101</ele>
      </trkpt>
      <trkpt lat="44.838" lon="4.81678">
        <ele>100</ele>
      </trkpt>
      <trkpt lat="44.83773" lon="4.81668">
        <ele>98</ele>
      </trkpt>
      <trkpt lat="44.83737" lon="4.81652">
        <ele>98</ele>
      </trkpt>
      <trkpt lat="44.83707" lon="4.81639">
        <ele>100</ele>
      </trkpt>
      <trkpt lat="44.83677" lon="4.81626">
        <ele>101</ele>
      </trkpt>
      <trkpt lat="44.83643" lon="4.81614">
        <ele>99</ele>
      </trkpt>
      <trkpt lat="44.83627" lon="4.81607">
        <ele>99</ele>
      </trkpt>
      <trkpt lat="44.8361" lon="4.816">
        <ele>98</ele>
      </trkpt>
      <trkpt lat="44.83598" lon="4.81595">
        <ele>97</ele>
      </trkpt>
      <trkpt lat="44.83563" lon="4.81581">
        <ele>97</ele>
      </trkpt>
      <trkpt lat="44.83525" lon="4.81564">
        <ele>97</ele>
      </trkpt>
      <trkpt lat="44.83491" lon="4.8155">
        <ele>98</ele>
      </trkpt>
      <trkpt lat="44.83429" lon="4.8152">
        <ele>99</ele>
      </trkpt>
      <trkpt lat="44.83393" lon="4.815">
        <ele>99</ele>
      </trkpt>
      <trkpt lat="44.83352" lon="4.81475">
        <ele>101</ele>
      </trkpt>
      <trkpt lat="44.83277" lon="4.81417">
        <ele>97</ele>
      </trkpt>
      <trkpt lat="44.83227" lon="4.8137">
        <ele>96</ele>
      </trkpt>
      <trkpt lat="44.8316" lon="4.81302">
        <ele>97</ele>
      </trkpt>
      <trkpt lat="44.83112" lon="4.81256">
        <ele>96</ele>
      </trkpt>
      <trkpt lat="44.83068" lon="4.81212">
        <ele>96</ele>
      </trkpt>
      <trkpt lat="44.83035" lon="4.81179">
        <ele>96</ele>
      </trkpt>
      <trkpt lat="44.82997" lon="4.81149">
        <ele>96</ele>
      </trkpt>
      <trkpt lat="44.82963" lon="4.81123">
        <ele>98</ele>
      </trkpt>
      <trkpt lat="44.82913" lon="4.81093">
        <ele>101</ele>
      </trkpt>
      <trkpt lat="44.82873" lon="4.81073">
        <ele>100</ele>
      </trkpt>
      <trkpt lat="44.82831" lon="4.81055">
        <ele>101</ele>
      </trkpt>
      <trkpt lat="44.82792" lon="4.81039">
        <ele>101</ele>
      </trkpt>
      <trkpt lat="44.82745" lon="4.81017">
        <ele>101</ele>
      </trkpt>
      <trkpt lat="44.82698" lon="4.80996">
        <ele>99</ele>
      </trkpt>
      <trkpt lat="44.82666" lon="4.80982">
        <ele>99</ele>
      </trkpt>
      <trkpt lat="44.8265" lon="4.80979">
        <ele>99</ele>
      </trkpt>
      <trkpt lat="44.82635" lon="4.80981">
        <ele>98</ele>
      </trkpt>
      <trkpt lat="44.82616" lon="4.80988">
        <ele>98</ele>
      </trkpt>
      <trkpt lat="44.82601" lon="4.81004">
        <ele>98</ele>
      </trkpt>
      <trkpt lat="44.8259" lon="4.81015">
        <ele>98</ele>
      </trkpt>
      <trkpt lat="44.82578" lon="4.8102">
        <ele>97</ele>
      </trkpt>
      <trkpt lat="44.82567" lon="4.81021">
        <ele>97</ele>
      </trkpt>
      <trkpt lat="44.82553" lon="4.81016">
        <ele>97</ele>
      </trkpt>
      <trkpt lat="44.82531" lon="4.81008">
        <ele>97</ele>
      </trkpt>
      <trkpt lat="44.82507" lon="4.81001">
        <ele>97</ele>
      </trkpt>
      <trkpt lat="44.82483" lon="4.80992">
        <ele>98</ele>
      </trkpt>
      <trkpt lat="44.82473" lon="4.80981">
        <ele>98</ele>
      </trkpt>
      <trkpt lat="44.82463" lon="4.80968">
        <ele>98</ele>
      </trkpt>
      <trkpt lat="44.82455" lon="4.80953">
        <ele>98</ele>
      </trkpt>
      <trkpt lat="44.82447" lon="4.80942">
        <ele>98</ele>
      </trkpt>
      <trkpt lat="44.82436" lon="4.80928">
        <ele>98</ele>
      </trkpt>
      <trkpt lat="44.82423" lon="4.80915">
        <ele>97</ele>
      </trkpt>
      <trkpt lat="44.82418" lon="4.80908">
        <ele>97</ele>
      </trkpt>
      <trkpt lat="44.82413" lon="4.80898">
        <ele>96</ele>
      </trkpt>
      <trkpt lat="44.82412" lon="4.80884">
        <ele>96</ele>
      </trkpt>
      <trkpt lat="44.82413" lon="4.80877">
        <ele>96</ele>
      </trkpt>
      <trkpt lat="44.82415" lon="4.80864">
        <ele>96</ele>
      </trkpt>
      <trkpt lat="44.82415" lon="4.80852">
        <ele>96</ele>
      </trkpt>
      <trkpt lat="44.82413" lon="4.80848">
        <ele>96</ele>
      </trkpt>
      <trkpt lat="44.82408" lon="4.80842">
        <ele>96</ele>
      </trkpt>
      <trkpt lat="44.82403" lon="4.80839">
        <ele>96</ele>
      </trkpt>
      <trkpt lat="44.82391" lon="4.80833">
        <ele>96</ele>
      </trkpt>
      <trkpt lat="44.82373" lon="4.80826">
        <ele>96</ele>
      </trkpt>
      <trkpt lat="44.82352" lon="4.80821">
        <ele>96</ele>
      </trkpt>
      <trkpt lat="44.8233" lon="4.80814">
        <ele>96</ele>
      </trkpt>
      <trkpt lat="44.8231" lon="4.80809">
        <ele>96</ele>
      </trkpt>
      <trkpt lat="44.82283" lon="4.80801">
        <ele>96</ele>
      </trkpt>
      <trkpt lat="44.82242" lon="4.80785">
        <ele>96</ele>
      </trkpt>
      <trkpt lat="44.82212" lon="4.80774">
        <ele>96</ele>
      </trkpt>
      <trkpt lat="44.82195" lon="4.80772">
        <ele>96</ele>
      </trkpt>
      <trkpt lat="44.82187" lon="4.80774">
        <ele>96</ele>
      </trkpt>
      <trkpt lat="44.82183" lon="4.80779">
        <ele>96</ele>
      </trkpt>
      <trkpt lat="44.82179" lon="4.80783">
        <ele>96</ele>
      </trkpt>
      <trkpt lat="44.82175" lon="4.80788">
        <ele>96</ele>
      </trkpt>
      <trkpt lat="44.8217" lon="4.80792">
        <ele>96</ele>
      </trkpt>
      <trkpt lat="44.82161" lon="4.80794">
        <ele>97</ele>
      </trkpt>
      <trkpt lat="44.82151" lon="4.80794">
        <ele>97</ele>
      </trkpt>
      <trkpt lat="44.82139" lon="4.80791">
        <ele>97</ele>
      </trkpt>
      <trkpt lat="44.82112" lon="4.80784">
        <ele>97</ele>
      </trkpt>
      <trkpt lat="44.82093" lon="4.80773">
        <ele>97</ele>
      </trkpt>
      <trkpt lat="44.82083" lon="4.80766">
        <ele>98</ele>
      </trkpt>
      <trkpt lat="44.82071" lon="4.80761">
        <ele>98</ele>
      </trkpt>
      <trkpt lat="44.82056" lon="4.80763">
        <ele>98</ele>
      </trkpt>
      <trkpt lat="44.82048" lon="4.80767">
        <ele>97</ele>
      </trkpt>
      <trkpt lat="44.82032" lon="4.80778">
        <ele>97</ele>
      </trkpt>
      <trkpt lat="44.8201" lon="4.80781">
        <ele>97</ele>
      </trkpt>
      <trkpt lat="44.81968" lon="4.80778">
        <ele>99</ele>
      </trkpt>
      <trkpt lat="44.81937" lon="4.80774">
        <ele>99</ele>
      </trkpt>
      <trkpt lat="44.81906" lon="4.80767">
        <ele>100</ele>
      </trkpt>
      <trkpt lat="44.81881" lon="4.80762">
        <ele>99</ele>
      </trkpt>
      <trkpt lat="44.81865" lon="4.80754">
        <ele>100</ele>
      </trkpt>
      <trkpt lat="44.81847" lon="4.8073">
        <ele>101</ele>
      </trkpt>
      <trkpt lat="44.81838" lon="4.80712">
        <ele>101</ele>
      </trkpt>
      <trkpt lat="44.81832" lon="4.80693">
        <ele>101</ele>
      </trkpt>
      <trkpt lat="44.81826" lon="4.80669">
        <ele>100</ele>
      </trkpt>
      <trkpt lat="44.81824" lon="4.80655">
        <ele>99</ele>
      </trkpt>
      <trkpt lat="44.8182" lon="4.80642">
        <ele>99</ele>
      </trkpt>
      <trkpt lat="44.8182" lon="4.80642">
        <ele>99</ele>
      </trkpt>
      <trkpt lat="44.81813" lon="4.80634">
        <ele>98</ele>
      </trkpt>
      <trkpt lat="44.81799" lon="4.80631">
        <ele>98</ele>
      </trkpt>
      <trkpt lat="44.81778" lon="4.8063">
        <ele>98</ele>
      </trkpt>
      <trkpt lat="44.81739" lon="4.80624">
        <ele>98</ele>
      </trkpt>
      <trkpt lat="44.817" lon="4.80621">
        <ele>98</ele>
      </trkpt>
      <trkpt lat="44.81683" lon="4.80622">
        <ele>98</ele>
      </trkpt>
      <trkpt lat="44.81653" lon="4.80619">
        <ele>98</ele>
      </trkpt>
      <trkpt lat="44.81637" lon="4.80612">
        <ele>98</ele>
      </trkpt>
      <trkpt lat="44.81619" lon="4.80598">
        <ele>98</ele>
      </trkpt>
      <trkpt lat="44.81603" lon="4.80589">
        <ele>98</ele>
      </trkpt>
      <trkpt lat="44.81581" lon="4.80581">
        <ele>99</ele>
      </trkpt>
      <trkpt lat="44.81566" lon="4.80575">
        <ele>98</ele>
      </trkpt>
      <trkpt lat="44.8155" lon="4.80572">
        <ele>98</ele>
      </trkpt>
      <trkpt lat="44.81518" lon="4.80564">
        <ele>98</ele>
      </trkpt>
      <trkpt lat="44.81493" lon="4.80562">
        <ele>98</ele>
      </trkpt>
      <trkpt lat="44.81475" lon="4.80551">
        <ele>97</ele>
      </trkpt>
      <trkpt lat="44.81455" lon="4.80548">
        <ele>97</ele>
      </trkpt>
      <trkpt lat="44.81436" lon="4.80536">
        <ele>97</ele>
      </trkpt>
      <trkpt lat="44.81414" lon="4.80522">
        <ele>97</ele>
      </trkpt>
      <trkpt lat="44.81393" lon="4.805">
        <ele>96</ele>
      </trkpt>
      <trkpt lat="44.81366" lon="4.80475">
        <ele>97</ele>
      </trkpt>
      <trkpt lat="44.81345" lon="4.80452">
        <ele>97</ele>
      </trkpt>
      <trkpt lat="44.81315" lon="4.80422">
        <ele>98</ele>
      </trkpt>
      <trkpt lat="44.81288" lon="4.80388">
        <ele>97</ele>
      </trkpt>
      <trkpt lat="44.81261" lon="4.80354">
        <ele>97</ele>
      </trkpt>
      <trkpt lat="44.81248" lon="4.80337">
        <ele>97</ele>
      </trkpt>
      <trkpt lat="44.81226" lon="4.80314">
        <ele>97</ele>
      </trkpt>
      <trkpt lat="44.81214" lon="4.80295">
        <ele>97</ele>
      </trkpt>
      <trkpt lat="44.8121" lon="4.80286">
        <ele>97</ele>
      </trkpt>
      <trkpt lat="44.8121" lon="4.80275">
        <ele>97</ele>
      </trkpt>
      <trkpt lat="44.81214" lon="4.80267">
        <ele>97</ele>
      </trkpt>
      <trkpt lat="44.81224" lon="4.80265">
        <ele>96</ele>
      </trkpt>
      <trkpt lat="44.81243" lon="4.80268">
        <ele>96</ele>
      </trkpt>
      <trkpt lat="44.8127" lon="4.80273">
        <ele>95</ele>
      </trkpt>
      <trkpt lat="44.81308" lon="4.80277">
        <ele>94</ele>
      </trkpt>
      <trkpt lat="44.81347" lon="4.80282">
        <ele>93</ele>
      </trkpt>
      <trkpt lat="44.81393" lon="4.80288">
        <ele>93</ele>
      </trkpt>
      <trkpt lat="44.81462" lon="4.80292">
        <ele>94</ele>
      </trkpt>
      <trkpt lat="44.81523" lon="4.80296">
        <ele>95</ele>
      </trkpt>
      <trkpt lat="44.81568" lon="4.80296">
        <ele>95</ele>
      </trkpt>
      <trkpt lat="44.81694" lon="4.80287">
        <ele>93</ele>
      </trkpt>
      <trkpt lat="44.81752" lon="4.80273">
        <ele>93</ele>
      </trkpt>
      <trkpt lat="44.81787" lon="4.80261">
        <ele>93</ele>
      </trkpt>
      <trkpt lat="44.81819" lon="4.80252">
        <ele>93</ele>
      </trkpt>
      <trkpt lat="44.81843" lon="4.80248">
        <ele>93</ele>
      </trkpt>
      <trkpt lat="44.81871" lon="4.80245">
        <ele>94</ele>
      </trkpt>
      <trkpt lat="44.81904" lon="4.80244">
        <ele>95</ele>
      </trkpt>
      <trkpt lat="44.82004" lon="4.80235">
        <ele>94</ele>
      </trkpt>
      <trkpt lat="44.82059" lon="4.80233">
        <ele>94</ele>
      </trkpt>
      <trkpt lat="44.82096" lon="4.80229">
        <ele>93</ele>
      </trkpt>
      <trkpt lat="44.8214" lon="4.80216">
        <ele>94</ele>
      </trkpt>
      <trkpt lat="44.82166" lon="4.80204">
        <ele>94</ele>
      </trkpt>
      <trkpt lat="44.82194" lon="4.80184">
        <ele>96</ele>
      </trkpt>
      <trkpt lat="44.82223" lon="4.80166">
        <ele>97</ele>
      </trkpt>
      <trkpt lat="44.82272" lon="4.8013">
        <ele>97</ele>
      </trkpt>
      <trkpt lat="44.82304" lon="4.8011">
        <ele>97</ele>
      </trkpt>
      <trkpt lat="44.82316" lon="4.80097">
        <ele>97</ele>
      </trkpt>
      <trkpt lat="44.8233" lon="4.80087">
        <ele>96</ele>
      </trkpt>
      <trkpt lat="44.8233" lon="4.80087">
        <ele>96</ele>
      </trkpt>
      <trkpt lat="44.82351" lon="4.80083">
        <ele>97</ele>
      </trkpt>
      <trkpt lat="44.82364" lon="4.80077">
        <ele>97</ele>
      </trkpt>
      <trkpt lat="44.82383" lon="4.80065">
        <ele>97</ele>
      </trkpt>
      <trkpt lat="44.82403" lon="4.80053">
        <ele>97</ele>
      </trkpt>
      <trkpt lat="44.82422" lon="4.8004">
        <ele>97</ele>
      </trkpt>
      <trkpt lat="44.82443" lon="4.80021">
        <ele>97</ele>
      </trkpt>
      <trkpt lat="44.82462" lon="4.80003">
        <ele>97</ele>
      </trkpt>
      <trkpt lat="44.82473" lon="4.8">
        <ele>95</ele>
      </trkpt>
      <trkpt lat="44.82476" lon="4.79996">
        <ele>95</ele>
      </trkpt>
      <trkpt lat="44.82476" lon="4.79991">
        <ele>95</ele>
      </trkpt>
      <trkpt lat="44.82471" lon="4.79975">
        <ele>95</ele>
      </trkpt>
      <trkpt lat="44.82459" lon="4.79953">
        <ele>95</ele>
      </trkpt>
      <trkpt lat="44.8244" lon="4.79915">
        <ele>94</ele>
      </trkpt>
      <trkpt lat="44.8242" lon="4.79873">
        <ele>96</ele>
      </trkpt>
      <trkpt lat="44.82396" lon="4.79825">
        <ele>97</ele>
      </trkpt>
      <trkpt lat="44.82388" lon="4.79809">
        <ele>97</ele>
      </trkpt>
      <trkpt lat="44.82381" lon="4.79802">
        <ele>97</ele>
      </trkpt>
      <trkpt lat="44.82377" lon="4.79803">
        <ele>97</ele>
      </trkpt>
      <trkpt lat="44.82375" lon="4.7981">
        <ele>97</ele>
      </trkpt>
      <trkpt lat="44.82374" lon="4.79822">
        <ele>97</ele>
      </trkpt>
      <trkpt lat="44.82368" lon="4.79839">
        <ele>96</ele>
      </trkpt>
      <trkpt lat="44.82356" lon="4.79861">
        <ele>96</ele>
      </trkpt>
      <trkpt lat="44.82343" lon="4.79888">
        <ele>96</ele>
      </trkpt>
      <trkpt lat="44.8233" lon="4.79914">
        <ele>97</ele>
      </trkpt>
      <trkpt lat="44.82311" lon="4.79941">
        <ele>97</ele>
      </trkpt>
      <trkpt lat="44.82286" lon="4.79961">
        <ele>98</ele>
      </trkpt>
      <trkpt lat="44.82259" lon="4.79985">
        <ele>98</ele>
      </trkpt>
      <trkpt lat="44.82237" lon="4.80001">
        <ele>97</ele>
      </trkpt>
      <trkpt lat="44.82208" lon="4.80026">
        <ele>96</ele>
      </trkpt>
      <trkpt lat="44.82186" lon="4.80053">
        <ele>96</ele>
      </trkpt>
      <trkpt lat="44.82159" lon="4.80072">
        <ele>94</ele>
      </trkpt>
      <trkpt lat="44.82131" lon="4.80087">
        <ele>94</ele>
      </trkpt>
      <trkpt lat="44.82094" lon="4.80098">
        <ele>94</ele>
      </trkpt>
      <trkpt lat="44.82065" lon="4.80103">
        <ele>94</ele>
      </trkpt>
      <trkpt lat="44.82026" lon="4.80108">
        <ele>94</ele>
      </trkpt>
      <trkpt lat="44.81998" lon="4.80113">
        <ele>95</ele>
      </trkpt>
      <trkpt lat="44.8197" lon="4.80117">
        <ele>95</ele>
      </trkpt>
      <trkpt lat="44.81945" lon="4.80118">
        <ele>95</ele>
      </trkpt>
      <trkpt lat="44.81909" lon="4.80124">
        <ele>95</ele>
      </trkpt>
      <trkpt lat="44.81877" lon="4.80129">
        <ele>94</ele>
      </trkpt>
      <trkpt lat="44.81834" lon="4.80134">
        <ele>94</ele>
      </trkpt>
      <trkpt lat="44.81794" lon="4.80141">
        <ele>94</ele>
      </trkpt>
      <trkpt lat="44.81756" lon="4.80144">
        <ele>94</ele>
      </trkpt>
      <trkpt lat="44.8172" lon="4.80149">
        <ele>94</ele>
      </trkpt>
      <trkpt lat="44.81669" lon="4.80149">
        <ele>94</ele>
      </trkpt>
      <trkpt lat="44.81632" lon="4.80147">
        <ele>94</ele>
      </trkpt>
      <trkpt lat="44.81575" lon="4.80143">
        <ele>95</ele>
      </trkpt>
      <trkpt lat="44.81533" lon="4.80138">
        <ele>96</ele>
      </trkpt>
      <trkpt lat="44.81487" lon="4.80129">
        <ele>98</ele>
      </trkpt>
      <trkpt lat="44.81411" lon="4.8012">
        <ele>97</ele>
      </trkpt>
      <trkpt lat="44.81367" lon="4.80113">
        <ele>95</ele>
      </trkpt>
      <trkpt lat="44.81336" lon="4.80109">
        <ele>95</ele>
      </trkpt>
      <trkpt lat="44.81325" lon="4.80106">
        <ele>93</ele>
      </trkpt>
      <trkpt lat="44.81313" lon="4.80095">
        <ele>93</ele>
      </trkpt>
      <trkpt lat="44.81304" lon="4.8009">
        <ele>93</ele>
      </trkpt>
      <trkpt lat="44.81287" lon="4.80091">
        <ele>93</ele>
      </trkpt>
      <trkpt lat="44.81279" lon="4.80096">
        <ele>92</ele>
      </trkpt>
      <trkpt lat="44.81264" lon="4.801">
        <ele>92</ele>
      </trkpt>
      <trkpt lat="44.81242" lon="4.80098">
        <ele>93</ele>
      </trkpt>
      <trkpt lat="44.81215" lon="4.80097">
        <ele>94</ele>
      </trkpt>
      <trkpt lat="44.81186" lon="4.80094">
        <ele>95</ele>
      </trkpt>
      <trkpt lat="44.81156" lon="4.80092">
        <ele>97</ele>
      </trkpt>
      <trkpt lat="44.81114" lon="4.80082">
        <ele>97</ele>
      </trkpt>
      <trkpt lat="44.81096" lon="4.8008">
        <ele>97</ele>
      </trkpt>
      <trkpt lat="44.81087" lon="4.80079">
        <ele>97</ele>
      </trkpt>
      <trkpt lat="44.81068" lon="4.80074">
        <ele>96</ele>
      </trkpt>
      <trkpt lat="44.81034" lon="4.80062">
        <ele>96</ele>
      </trkpt>
      <trkpt lat="44.81011" lon="4.80057">
        <ele>96</ele>
      </trkpt>
      <trkpt lat="44.80992" lon="4.80048">
        <ele>96</ele>
      </trkpt>
      <trkpt lat="44.80972" lon="4.80038">
        <ele>96</ele>
      </trkpt>
      <trkpt lat="44.80944" lon="4.80019">
        <ele>95</ele>
      </trkpt>
      <trkpt lat="44.8091" lon="4.79997">
        <ele>95</ele>
      </trkpt>
      <trkpt lat="44.80879" lon="4.79976">
        <ele>95</ele>
      </trkpt>
      <trkpt lat="44.80856" lon="4.79952">
        <ele>95</ele>
      </trkpt>
      <trkpt lat="44.80835" lon="4.79935">
        <ele>96</ele>
      </trkpt>
      <trkpt lat="44.80816" lon="4.79914">
        <ele>97</ele>
      </trkpt>
      <trkpt lat="44.80791" lon="4.79897">
        <ele>97</ele>
      </trkpt>
      <trkpt lat="44.80771" lon="4.79882">
        <ele>97</ele>
      </trkpt>
      <trkpt lat="44.80754" lon="4.79872">
        <ele>97</ele>
      </trkpt>
      <trkpt lat="44.80743" lon="4.79858">
        <ele>97</ele>
      </trkpt>
      <trkpt lat="44.80738" lon="4.79849">
        <ele>98</ele>
      </trkpt>
      <trkpt lat="44.80728" lon="4.79835">
        <ele>98</ele>
      </trkpt>
      <trkpt lat="44.80713" lon="4.79824">
        <ele>98</ele>
      </trkpt>
      <trkpt lat="44.80698" lon="4.79808">
        <ele>98</ele>
      </trkpt>
      <trkpt lat="44.80686" lon="4.79793">
        <ele>98</ele>
      </trkpt>
      <trkpt lat="44.80674" lon="4.79781">
        <ele>97</ele>
      </trkpt>
      <trkpt lat="44.80659" lon="4.79758">
        <ele>96</ele>
      </trkpt>
      <trkpt lat="44.80644" lon="4.79745">
        <ele>95</ele>
      </trkpt>
      <trkpt lat="44.80626" lon="4.79726">
        <ele>95</ele>
      </trkpt>
      <trkpt lat="44.80614" lon="4.79719">
        <ele>94</ele>
      </trkpt>
      <trkpt lat="44.80598" lon="4.79704">
        <ele>94</ele>
      </trkpt>
      <trkpt lat="44.80584" lon="4.79678">
        <ele>93</ele>
      </trkpt>
      <trkpt lat="44.80571" lon="4.79641">
        <ele>93</ele>
      </trkpt>
      <trkpt lat="44.80556" lon="4.79592">
        <ele>93</ele>
      </trkpt>
      <trkpt lat="44.8055" lon="4.79568">
        <ele>93</ele>
      </trkpt>
      <trkpt lat="44.80548" lon="4.79551">
        <ele>94</ele>
      </trkpt>
      <trkpt lat="44.80545" lon="4.79533">
        <ele>94</ele>
      </trkpt>
      <trkpt lat="44.80542" lon="4.79519">
        <ele>94</ele>
      </trkpt>
      <trkpt lat="44.80542" lon="4.79501">
        <ele>94</ele>
      </trkpt>
      <trkpt lat="44.80537" lon="4.7948">
        <ele>94</ele>
      </trkpt>
      <trkpt lat="44.80526" lon="4.7945">
        <ele>94</ele>
      </trkpt>
      <trkpt lat="44.80516" lon="4.79423">
        <ele>94</ele>
      </trkpt>
      <trkpt lat="44.80509" lon="4.79396">
        <ele>94</ele>
      </trkpt>
      <trkpt lat="44.80502" lon="4.79373">
        <ele>94</ele>
      </trkpt>
      <trkpt lat="44.80495" lon="4.79358">
        <ele>93</ele>
      </trkpt>
      <trkpt lat="44.80492" lon="4.79348">
        <ele>94</ele>
      </trkpt>
      <trkpt lat="44.8048" lon="4.79331">
        <ele>93</ele>
      </trkpt>
      <trkpt lat="44.80471" lon="4.79319">
        <ele>93</ele>
      </trkpt>
      <trkpt lat="44.80464" lon="4.79308">
        <ele>93</ele>
      </trkpt>
      <trkpt lat="44.80459" lon="4.79293">
        <ele>93</ele>
      </trkpt>
      <trkpt lat="44.80456" lon="4.79278">
        <ele>92</ele>
      </trkpt>
      <trkpt lat="44.80455" lon="4.79267">
        <ele>92</ele>
      </trkpt>
      <trkpt lat="44.80455" lon="4.79259">
        <ele>92</ele>
      </trkpt>
      <trkpt lat="44.80452" lon="4.7925">
        <ele>92</ele>
      </trkpt>
      <trkpt lat="44.80448" lon="4.79247">
        <ele>92</ele>
      </trkpt>
      <trkpt lat="44.80442" lon="4.79246">
        <ele>92</ele>
      </trkpt>
      <trkpt lat="44.80434" lon="4.79239">
        <ele>92</ele>
      </trkpt>
      <trkpt lat="44.80428" lon="4.79223">
        <ele>91</ele>
      </trkpt>
      <trkpt lat="44.80424" lon="4.79207">
        <ele>91</ele>
      </trkpt>
      <trkpt lat="44.80417" lon="4.79193">
        <ele>91</ele>
      </trkpt>
      <trkpt lat="44.80412" lon="4.79179">
        <ele>91</ele>
      </trkpt>
      <trkpt lat="44.80407" lon="4.7916">
        <ele>91</ele>
      </trkpt>
      <trkpt lat="44.80403" lon="4.79147">
        <ele>92</ele>
      </trkpt>
      <trkpt lat="44.80401" lon="4.79131">
        <ele>92</ele>
      </trkpt>
      <trkpt lat="44.80402" lon="4.79115">
        <ele>93</ele>
      </trkpt>
      <trkpt lat="44.80402" lon="4.7911">
        <ele>93</ele>
      </trkpt>
      <trkpt lat="44.80401" lon="4.791">
        <ele>93</ele>
      </trkpt>
      <trkpt lat="44.80395" lon="4.79086">
        <ele>93</ele>
      </trkpt>
      <trkpt lat="44.80387" lon="4.79069">
        <ele>94</ele>
      </trkpt>
      <trkpt lat="44.80379" lon="4.79046">
        <ele>94</ele>
      </trkpt>
      <trkpt lat="44.80372" lon="4.79027">
        <ele>93</ele>
      </trkpt>
      <trkpt lat="44.80364" lon="4.7901">
        <ele>93</ele>
      </trkpt>
      <trkpt lat="44.80358" lon="4.78995">
        <ele>94</ele>
      </trkpt>
      <trkpt lat="44.80352" lon="4.78977">
        <ele>95</ele>
      </trkpt>
      <trkpt lat="44.80344" lon="4.78956">
        <ele>95</ele>
      </trkpt>
      <trkpt lat="44.80336" lon="4.78933">
        <ele>97</ele>
      </trkpt>
      <trkpt lat="44.80327" lon="4.78904">
        <ele>96</ele>
      </trkpt>
      <trkpt lat="44.80319" lon="4.78871">
        <ele>95</ele>
      </trkpt>
      <trkpt lat="44.80312" lon="4.78838">
        <ele>95</ele>
      </trkpt>
      <trkpt lat="44.80307" lon="4.78818">
        <ele>95</ele>
      </trkpt>
      <trkpt lat="44.80303" lon="4.78799">
        <ele>95</ele>
      </trkpt>
      <trkpt lat="44.80298" lon="4.78784">
        <ele>95</ele>
      </trkpt>
      <trkpt lat="44.80292" lon="4.78773">
        <ele>96</ele>
      </trkpt>
      <trkpt lat="44.80289" lon="4.78761">
        <ele>96</ele>
      </trkpt>
      <trkpt lat="44.80284" lon="4.78746">
        <ele>97</ele>
      </trkpt>
      <trkpt lat="44.80274" lon="4.78717">
        <ele>97</ele>
      </trkpt>
      <trkpt lat="44.80263" lon="4.78691">
        <ele>96</ele>
      </trkpt>
      <trkpt lat="44.80254" lon="4.78667">
        <ele>96</ele>
      </trkpt>
      <trkpt lat="44.8025" lon="4.78652">
        <ele>95</ele>
      </trkpt>
      <trkpt lat="44.80246" lon="4.78645">
        <ele>95</ele>
      </trkpt>
      <trkpt lat="44.80241" lon="4.78629">
        <ele>94</ele>
      </trkpt>
      <trkpt lat="44.80232" lon="4.78605">
        <ele>94</ele>
      </trkpt>
      <trkpt lat="44.80219" lon="4.78572">
        <ele>94</ele>
      </trkpt>
      <trkpt lat="44.80207" lon="4.78542">
        <ele>94</ele>
      </trkpt>
      <trkpt lat="44.80197" lon="4.78518">
        <ele>94</ele>
      </trkpt>
      <trkpt lat="44.80185" lon="4.78488">
        <ele>95</ele>
      </trkpt>
      <trkpt lat="44.80169" lon="4.78458">
        <ele>95</ele>
      </trkpt>
      <trkpt lat="44.80154" lon="4.78433">
        <ele>94</ele>
      </trkpt>
      <trkpt lat="44.80132" lon="4.78399">
        <ele>94</ele>
      </trkpt>
      <trkpt lat="44.80106" lon="4.78368">
        <ele>93</ele>
      </trkpt>
      <trkpt lat="44.80103" lon="4.78366">
        <ele>93</ele>
      </trkpt>
      <trkpt lat="44.80067" lon="4.78315">
        <ele>93</ele>
      </trkpt>
      <trkpt lat="44.8005" lon="4.78285">
        <ele>93</ele>
      </trkpt>
      <trkpt lat="44.80042" lon="4.78269">
        <ele>93</ele>
      </trkpt>
      <trkpt lat="44.80025" lon="4.78243">
        <ele>94</ele>
      </trkpt>
      <trkpt lat="44.80011" lon="4.78225">
        <ele>94</ele>
      </trkpt>
      <trkpt lat="44.80002" lon="4.78209">
        <ele>94</ele>
      </trkpt>
      <trkpt lat="44.79997" lon="4.78198">
        <ele>93</ele>
      </trkpt>
      <trkpt lat="44.80001" lon="4.78191">
        <ele>94</ele>
      </trkpt>
      <trkpt lat="44.80002" lon="4.78186">
        <ele>94</ele>
      </trkpt>
      <trkpt lat="44.80008" lon="4.78184">
        <ele>94</ele>
      </trkpt>
      <trkpt lat="44.80012" lon="4.78186">
        <ele>94</ele>
      </trkpt>
      <trkpt lat="44.80012" lon="4.78196">
        <ele>94</ele>
      </trkpt>
      <trkpt lat="44.80015" lon="4.78205">
        <ele>94</ele>
      </trkpt>
      <trkpt lat="44.8002" lon="4.78214">
        <ele>94</ele>
      </trkpt>
      <trkpt lat="44.80025" lon="4.78218">
        <ele>94</ele>
      </trkpt>
      <trkpt lat="44.80035" lon="4.78223">
        <ele>94</ele>
      </trkpt>
      <trkpt lat="44.80043" lon="4.78223">
        <ele>94</ele>
      </trkpt>
      <trkpt lat="44.80053" lon="4.78226">
        <ele>94</ele>
      </trkpt>
      <trkpt lat="44.80063" lon="4.78236">
        <ele>94</ele>
      </trkpt>
      <trkpt lat="44.80077" lon="4.78257">
        <ele>94</ele>
      </trkpt>
      <trkpt lat="44.80093" lon="4.78284">
        <ele>94</ele>
      </trkpt>
      <trkpt lat="44.80111" lon="4.78307">
        <ele>94</ele>
      </trkpt>
      <trkpt lat="44.80116" lon="4.7832">
        <ele>94</ele>
      </trkpt>
      <trkpt lat="44.80116" lon="4.78326">
        <ele>94</ele>
      </trkpt>
      <trkpt lat="44.80116" lon="4.78326">
        <ele>94</ele>
      </trkpt>
      <trkpt lat="44.80113" lon="4.78333">
        <ele>94</ele>
      </trkpt>
      <trkpt lat="44.80098" lon="4.7835">
        <ele>93</ele>
      </trkpt>
      <trkpt lat="44.80077" lon="4.78374">
        <ele>92</ele>
      </trkpt>
      <trkpt lat="44.8005" lon="4.78403">
        <ele>92</ele>
      </trkpt>
      <trkpt lat="44.80015" lon="4.78439">
        <ele>92</ele>
      </trkpt>
      <trkpt lat="44.79977" lon="4.7848">
        <ele>92</ele>
      </trkpt>
      <trkpt lat="44.79948" lon="4.7851">
        <ele>92</ele>
      </trkpt>
      <trkpt lat="44.79922" lon="4.78535">
        <ele>92</ele>
      </trkpt>
      <trkpt lat="44.79906" lon="4.78553">
        <ele>92</ele>
      </trkpt>
      <trkpt lat="44.79894" lon="4.78566">
        <ele>92</ele>
      </trkpt>
      <trkpt lat="44.79887" lon="4.78569">
        <ele>92</ele>
      </trkpt>
      <trkpt lat="44.79885" lon="4.78565">
        <ele>93</ele>
        <time>2013-04-24T17:16:50Z</time>
      </trkpt>
      <trkpt lat="44.79883" lon="4.78564">
        <ele>93</ele>
        <time>2013-04-24T17:16:51Z</time>
      </trkpt>
      <trkpt lat="44.79875" lon="4.78557">
        <ele>93</ele>
        <time>2013-04-24T17:16:54Z</time>
      </trkpt>
      <trkpt lat="44.79857" lon="4.78541">
        <ele>93</ele>
        <time>2013-04-24T17:16:58Z</time>
      </trkpt>
      <trkpt lat="44.79824" lon="4.78512">
        <ele>92</ele>
        <time>2013-04-24T17:17:04Z</time>
      </trkpt>
      <trkpt lat="44.79818" lon="4.78506">
        <ele>92</ele>
        <time>2013-04-24T17:17:05Z</time>
      </trkpt>
      <trkpt lat="44.79729" lon="4.78425">
        <ele>93</ele>
        <time>2013-04-24T17:18:44Z</time>
      </trkpt>
      <trkpt lat="44.79708" lon="4.78407">
        <ele>93</ele>
        <time>2013-04-24T17:18:49Z</time>
      </trkpt>
      <trkpt lat="44.7967" lon="4.78376">
        <ele>94</ele>
        <time>2013-04-24T17:18:57Z</time>
      </trkpt>
      <trkpt lat="44.79639" lon="4.78351">
        <ele>94</ele>
        <time>2013-04-24T17:19:03Z</time>
      </trkpt>
      <trkpt lat="44.79597" lon="4.78325">
        <ele>94</ele>
        <time>2013-04-24T17:19:11Z</time>
      </trkpt>
      <trkpt lat="44.79548" lon="4.78299">
        <ele>94</ele>
        <time>2013-04-24T17:19:20Z</time>
      </trkpt>
      <trkpt lat="44.79511" lon="4.78277">
        <ele>94</ele>
        <time>2013-04-24T17:19:27Z</time>
      </trkpt>
      <trkpt lat="44.7946" lon="4.78224">
        <ele>94</ele>
        <time>2013-04-24T17:21:36Z</time>
      </trkpt>
      <trkpt lat="44.79438" lon="4.78197">
        <ele>94</ele>
        <time>2013-04-24T17:21:42Z</time>
      </trkpt>
      <trkpt lat="44.79418" lon="4.78185">
        <ele>95</ele>
        <time>2013-04-24T17:21:46Z</time>
      </trkpt>
      <trkpt lat="44.79408" lon="4.78179">
        <ele>95</ele>
        <time>2013-04-24T17:21:48Z</time>
      </trkpt>
      <trkpt lat="44.79372" lon="4.7816">
        <ele>93</ele>
        <time>2013-04-24T17:21:55Z</time>
      </trkpt>
      <trkpt lat="44.79338" lon="4.78134">
        <ele>93</ele>
        <time>2013-04-24T17:22:02Z</time>
      </trkpt>
      <trkpt lat="44.7931" lon="4.78106">
        <ele>92</ele>
        <time>2013-04-24T17:22:07Z</time>
      </trkpt>
      <trkpt lat="44.79304" lon="4.78101">
        <ele>92</ele>
        <time>2013-04-24T17:22:08Z</time>
      </trkpt>
      <trkpt lat="44.79275" lon="4.78079">
        <ele>92</ele>
        <time>2013-04-24T17:22:13Z</time>
      </trkpt>
      <trkpt lat="44.79268" lon="4.78076">
        <ele>92</ele>
        <time>2013-04-24T17:22:14Z</time>
      </trkpt>
      <trkpt lat="44.79262" lon="4.78073">
        <ele>92</ele>
        <time>2013-04-24T17:22:15Z</time>
      </trkpt>
      <trkpt lat="44.79256" lon="4.7807">
        <ele>92</ele>
        <time>2013-04-24T17:22:16Z</time>
      </trkpt>
      <trkpt lat="44.7925" lon="4.78066">
        <ele>92</ele>
        <time>2013-04-24T17:22:17Z</time>
      </trkpt>
      <trkpt lat="44.79232" lon="4.78054">
        <ele>92</ele>
        <time>2013-04-24T17:22:20Z</time>
      </trkpt>
      <trkpt lat="44.79189" lon="4.78021">
        <ele>92</ele>
        <time>2013-04-24T17:22:28Z</time>
      </trkpt>
      <trkpt lat="44.79151" lon="4.77988">
        <ele>92</ele>
        <time>2013-04-24T17:22:35Z</time>
      </trkpt>
      <trkpt lat="44.79109" lon="4.77953">
        <ele>92</ele>
        <time>2013-04-24T17:22:43Z</time>
      </trkpt>
      <trkpt lat="44.79073" lon="4.77924">
        <ele>92</ele>
        <time>2013-04-24T17:22:51Z</time>
      </trkpt>
      <trkpt lat="44.7905" lon="4.77904">
        <ele>92</ele>
        <time>2013-04-24T17:22:57Z</time>
      </trkpt>
      <trkpt lat="44.79046" lon="4.779">
        <ele>92</ele>
        <time>2013-04-24T17:22:58Z</time>
      </trkpt>
      <trkpt lat="44.79012" lon="4.77873">
        <ele>92</ele>
        <time>2013-04-24T17:23:07Z</time>
      </trkpt>
      <trkpt lat="44.7899" lon="4.77849">
        <ele>91</ele>
        <time>2013-04-24T17:23:13Z</time>
      </trkpt>
      <trkpt lat="44.78955" lon="4.77818">
        <ele>91</ele>
        <time>2013-04-24T17:23:20Z</time>
      </trkpt>
      <trkpt lat="44.78926" lon="4.7779">
        <ele>91</ele>
        <time>2013-04-24T17:23:26Z</time>
      </trkpt>
      <trkpt lat="44.78921" lon="4.77785">
        <ele>91</ele>
        <time>2013-04-24T17:23:27Z</time>
      </trkpt>
      <trkpt lat="44.78906" lon="4.77773">
        <ele>90</ele>
        <time>2013-04-24T17:23:30Z</time>
      </trkpt>
      <trkpt lat="44.78891" lon="4.7776">
        <ele>90</ele>
        <time>2013-04-24T17:23:33Z</time>
      </trkpt>
      <trkpt lat="44.78841" lon="4.77715">
        <ele>91</ele>
        <time>2013-04-24T17:23:43Z</time>
      </trkpt>
      <trkpt lat="44.7883" lon="4.77707">
        <ele>91</ele>
        <time>2013-04-24T17:23:45Z</time>
      </trkpt>
      <trkpt lat="44.78808" lon="4.77689">
        <ele>91</ele>
        <time>2013-04-24T17:23:49Z</time>
      </trkpt>
      <trkpt lat="44.78773" lon="4.77663">
        <ele>92</ele>
        <time>2013-04-24T17:23:55Z</time>
      </trkpt>
      <trkpt lat="44.78725" lon="4.77631">
        <ele>92</ele>
        <time>2013-04-24T17:24:03Z</time>
      </trkpt>
      <trkpt lat="44.78691" lon="4.77609">
        <ele>92</ele>
        <time>2013-04-24T17:24:09Z</time>
      </trkpt>
      <trkpt lat="44.78651" lon="4.77581">
        <ele>92</ele>
        <time>2013-04-24T17:24:16Z</time>
      </trkpt>
      <trkpt lat="44.78628" lon="4.77566">
        <ele>92</ele>
        <time>2013-04-24T17:24:20Z</time>
      </trkpt>
      <trkpt lat="44.78611" lon="4.77554">
        <ele>92</ele>
        <time>2013-04-24T17:24:23Z</time>
      </trkpt>
      <trkpt lat="44.78574" lon="4.77534">
        <ele>92</ele>
        <time>2013-04-24T17:24:29Z</time>
      </trkpt>
      <trkpt lat="44.78522" lon="4.77516">
        <ele>92</ele>
        <time>2013-04-24T17:24:37Z</time>
      </trkpt>
      <trkpt lat="44.78483" lon="4.77503">
        <ele>91</ele>
        <time>2013-04-24T17:24:43Z</time>
      </trkpt>
      <trkpt lat="44.78443" lon="4.77491">
        <ele>92</ele>
        <time>2013-04-24T17:24:49Z</time>
      </trkpt>
      <trkpt lat="44.78411" lon="4.77479">
        <ele>92</ele>
        <time>2013-04-24T17:24:54Z</time>
      </trkpt>
      <trkpt lat="44.78373" lon="4.77467">
        <ele>91</ele>
        <time>2013-04-24T17:25:00Z</time>
      </trkpt>
      <trkpt lat="44.78333" lon="4.77452">
        <ele>91</ele>
        <time>2013-04-24T17:25:06Z</time>
      </trkpt>
      <trkpt lat="44.78286" lon="4.77434">
        <ele>92</ele>
        <time>2013-04-24T17:25:13Z</time>
      </trkpt>
      <trkpt lat="44.78242" lon="4.77419">
        <ele>92</ele>
        <time>2013-04-24T17:25:19Z</time>
      </trkpt>
      <trkpt lat="44.78228" lon="4.77414">
        <ele>90</ele>
        <time>2013-04-24T17:25:21Z</time>
      </trkpt>
      <trkpt lat="44.78216" lon="4.77404">
        <ele>90</ele>
        <time>2013-04-24T17:25:23Z</time>
      </trkpt>
      <trkpt lat="44.78195" lon="4.77387">
        <ele>90</ele>
        <time>2013-04-24T17:25:27Z</time>
      </trkpt>
      <trkpt lat="44.78176" lon="4.77369">
        <ele>90</ele>
        <time>2013-04-24T17:25:31Z</time>
      </trkpt>
      <trkpt lat="44.78169" lon="4.77367">
        <ele>90</ele>
        <time>2013-04-24T17:25:32Z</time>
      </trkpt>
      <trkpt lat="44.78163" lon="4.77368">
        <ele>90</ele>
        <time>2013-04-24T17:25:33Z</time>
      </trkpt>
      <trkpt lat="44.78157" lon="4.77373">
        <ele>91</ele>
        <time>2013-04-24T17:25:34Z</time>
      </trkpt>
      <trkpt lat="44.78154" lon="4.77379">
        <ele>91</ele>
        <time>2013-04-24T17:25:35Z</time>
      </trkpt>
      <trkpt lat="44.78153" lon="4.77387">
        <ele>91</ele>
        <time>2013-04-24T17:25:36Z</time>
      </trkpt>
      <trkpt lat="44.78155" lon="4.77406">
        <ele>91</ele>
        <time>2013-04-24T17:25:39Z</time>
      </trkpt>
      <trkpt lat="44.78157" lon="4.7741">
        <ele>92</ele>
        <time>2013-04-24T17:25:40Z</time>
      </trkpt>
      <trkpt lat="44.78158" lon="4.77418">
        <ele>92</ele>
        <time>2013-04-24T17:25:42Z</time>
      </trkpt>
      <trkpt lat="44.78157" lon="4.77421">
        <ele>92</ele>
        <time>2013-04-24T17:25:43Z</time>
      </trkpt>
      <trkpt lat="44.78148" lon="4.77421">
        <ele>92</ele>
        <time>2013-04-24T17:25:46Z</time>
      </trkpt>
      <trkpt lat="44.78135" lon="4.77413">
        <ele>91</ele>
        <time>2013-04-24T17:25:50Z</time>
      </trkpt>
      <trkpt lat="44.78127" lon="4.77417">
        <ele>92</ele>
        <time>2013-04-24T17:25:52Z</time>
      </trkpt>
      <trkpt lat="44.7812" lon="4.77422">
        <ele>92</ele>
        <time>2013-04-24T17:25:54Z</time>
      </trkpt>
      <trkpt lat="44.78108" lon="4.77431">
        <ele>92</ele>
        <time>2013-04-24T17:25:59Z</time>
      </trkpt>
      <trkpt lat="44.781" lon="4.77431">
        <ele>92</ele>
        <time>2013-04-24T17:26:02Z</time>
      </trkpt>
      <trkpt lat="44.78098" lon="4.77429">
        <ele>92</ele>
        <time>2013-04-24T17:26:03Z</time>
      </trkpt>
      <trkpt lat="44.78092" lon="4.77415">
        <ele>92</ele>
        <time>2013-04-24T17:26:06Z</time>
      </trkpt>
      <trkpt lat="44.7809" lon="4.77411">
        <ele>92</ele>
        <time>2013-04-24T17:26:07Z</time>
      </trkpt>
      <trkpt lat="44.78085" lon="4.77398">
        <ele>91</ele>
        <time>2013-04-24T17:28:56Z</time>
      </trkpt>
      <trkpt lat="44.78085" lon="4.77398">
        <ele>91</ele>
        <time>2013-04-24T17:28:56Z</time>
      </trkpt>
      <trkpt lat="44.78082" lon="4.77388">
        <ele>91</ele>
        <time>2013-04-24T17:28:59Z</time>
      </trkpt>
      <trkpt lat="44.78081" lon="4.77383">
        <ele>91</ele>
        <time>2013-04-24T17:29:00Z</time>
      </trkpt>
      <trkpt lat="44.78079" lon="4.77377">
        <ele>91</ele>
        <time>2013-04-24T17:29:01Z</time>
      </trkpt>
      <trkpt lat="44.78073" lon="4.77364">
        <ele>91</ele>
        <time>2013-04-24T17:29:03Z</time>
      </trkpt>
      <trkpt lat="44.78055" lon="4.77329">
        <ele>90</ele>
        <time>2013-04-24T17:29:09Z</time>
      </trkpt>
      <trkpt lat="44.78034" lon="4.7729">
        <ele>91</ele>
        <time>2013-04-24T17:29:15Z</time>
      </trkpt>
      <trkpt lat="44.78013" lon="4.77246">
        <ele>91</ele>
        <time>2013-04-24T17:29:21Z</time>
      </trkpt>
      <trkpt lat="44.77985" lon="4.77178">
        <ele>92</ele>
        <time>2013-04-24T17:29:30Z</time>
      </trkpt>
      <trkpt lat="44.77957" lon="4.77118">
        <ele>91</ele>
        <time>2013-04-24T17:29:38Z</time>
      </trkpt>
      <trkpt lat="44.77924" lon="4.77064">
        <ele>90</ele>
        <time>2013-04-24T17:29:46Z</time>
      </trkpt>
      <trkpt lat="44.77893" lon="4.7702">
        <ele>88</ele>
        <time>2013-04-24T17:29:53Z</time>
      </trkpt>
      <trkpt lat="44.77875" lon="4.76998">
        <ele>88</ele>
        <time>2013-04-24T17:29:57Z</time>
      </trkpt>
      <trkpt lat="44.77861" lon="4.76983">
        <ele>89</ele>
        <time>2013-04-24T17:30:00Z</time>
      </trkpt>
      <trkpt lat="44.77828" lon="4.76947">
        <ele>90</ele>
        <time>2013-04-24T17:30:07Z</time>
      </trkpt>
      <trkpt lat="44.77784" lon="4.76902">
        <ele>90</ele>
        <time>2013-04-24T17:30:16Z</time>
      </trkpt>
      <trkpt lat="44.77747" lon="4.76865">
        <ele>91</ele>
        <time>2013-04-24T17:30:24Z</time>
      </trkpt>
      <trkpt lat="44.77708" lon="4.7683">
        <ele>91</ele>
        <time>2013-04-24T17:30:32Z</time>
      </trkpt>
      <trkpt lat="44.77693" lon="4.76815">
        <ele>91</ele>
        <time>2013-04-24T17:30:35Z</time>
      </trkpt>
      <trkpt lat="44.77678" lon="4.76798">
        <ele>91</ele>
        <time>2013-04-24T17:30:38Z</time>
      </trkpt>
      <trkpt lat="44.77642" lon="4.76758">
        <ele>91</ele>
        <time>2013-04-24T17:30:45Z</time>
      </trkpt>
      <trkpt lat="44.77637" lon="4.76754">
        <ele>91</ele>
        <time>2013-04-24T17:30:46Z</time>
      </trkpt>
      <trkpt lat="44.77619" lon="4.76747">
        <ele>93</ele>
        <time>2013-04-24T17:30:49Z</time>
      </trkpt>
      <trkpt lat="44.77595" lon="4.76751">
        <ele>94</ele>
        <time>2013-04-24T17:30:53Z</time>
      </trkpt>
      <trkpt lat="44.7759" lon="4.76754">
        <ele>94</ele>
        <time>2013-04-24T17:30:54Z</time>
      </trkpt>
      <trkpt lat="44.77564" lon="4.76765">
        <ele>94</ele>
        <time>2013-04-24T17:30:58Z</time>
      </trkpt>
      <trkpt lat="44.77532" lon="4.76778">
        <ele>94</ele>
        <time>2013-04-24T17:31:03Z</time>
      </trkpt>
      <trkpt lat="44.77506" lon="4.76784">
        <ele>94</ele>
        <time>2013-04-24T17:31:07Z</time>
      </trkpt>
      <trkpt lat="44.77491" lon="4.76784">
        <ele>95</ele>
        <time>2013-04-24T17:31:09Z</time>
      </trkpt>
      <trkpt lat="44.77464" lon="4.76787">
        <ele>95</ele>
        <time>2013-04-24T17:31:13Z</time>
      </trkpt>
      <trkpt lat="44.77457" lon="4.76787">
        <ele>95</ele>
        <time>2013-04-24T17:31:14Z</time>
      </trkpt>
      <trkpt lat="44.77415" lon="4.76782">
        <ele>96</ele>
        <time>2013-04-24T17:31:20Z</time>
      </trkpt>
      <trkpt lat="44.77402" lon="4.76779">
        <ele>96</ele>
        <time>2013-04-24T17:31:22Z</time>
      </trkpt>
      <trkpt lat="44.77389" lon="4.76775">
        <ele>95</ele>
        <time>2013-04-24T17:31:24Z</time>
      </trkpt>
      <trkpt lat="44.77376" lon="4.76771">
        <ele>95</ele>
        <time>2013-04-24T17:31:26Z</time>
      </trkpt>
      <trkpt lat="44.77349" lon="4.76765">
        <ele>95</ele>
        <time>2013-04-24T17:31:30Z</time>
      </trkpt>
      <trkpt lat="44.77308" lon="4.76764">
        <ele>93</ele>
        <time>2013-04-24T17:31:36Z</time>
      </trkpt>
      <trkpt lat="44.77281" lon="4.76763">
        <ele>93</ele>
        <time>2013-04-24T17:31:40Z</time>
      </trkpt>
      <trkpt lat="44.77275" lon="4.76765">
        <ele>93</ele>
        <time>2013-04-24T17:31:41Z</time>
      </trkpt>
      <trkpt lat="44.77266" lon="4.76781">
        <ele>93</ele>
        <time>2013-04-24T17:31:44Z</time>
      </trkpt>
      <trkpt lat="44.77265" lon="4.76786">
        <ele>93</ele>
        <time>2013-04-24T17:31:45Z</time>
      </trkpt>
      <trkpt lat="44.77257" lon="4.76817">
        <ele>93</ele>
        <time>2013-04-24T17:31:51Z</time>
      </trkpt>
      <trkpt lat="44.77255" lon="4.76825">
        <ele>92</ele>
        <time>2013-04-24T17:31:53Z</time>
      </trkpt>
      <trkpt lat="44.77254" lon="4.76838">
        <ele>93</ele>
        <time>2013-04-24T17:31:56Z</time>
      </trkpt>
      <trkpt lat="44.77253" lon="4.76842">
        <ele>93</ele>
        <time>2013-04-24T17:31:57Z</time>
      </trkpt>
      <trkpt lat="44.77252" lon="4.7687">
        <ele>94</ele>
        <time>2013-04-24T17:32:02Z</time>
      </trkpt>
      <trkpt lat="44.77252" lon="4.76895">
        <ele>94</ele>
        <time>2013-04-24T17:32:08Z</time>
      </trkpt>
      <trkpt lat="44.77251" lon="4.76903">
        <ele>94</ele>
        <time>2013-04-24T17:32:13Z</time>
      </trkpt>
      <trkpt lat="44.77251" lon="4.76903">
        <ele>94</ele>
        <time>2013-04-24T17:32:22Z</time>
      </trkpt>
      <trkpt lat="44.77251" lon="4.76903">
        <ele>94</ele>
        <time>2013-04-24T17:32:23Z</time>
      </trkpt>
      <trkpt lat="44.77251" lon="4.76903">
        <ele>94</ele>
        <time>2013-04-24T17:32:24Z</time>
      </trkpt>
      <trkpt lat="44.77251" lon="4.76903">
        <ele>94</ele>
        <time>2013-04-24T17:32:25Z</time>
      </trkpt>
      <trkpt lat="44.77251" lon="4.76903">
        <ele>94</ele>
        <time>2013-04-24T17:32:26Z</time>
      </trkpt>
      <trkpt lat="44.77251" lon="4.76903">
        <ele>94</ele>
        <time>2013-04-24T17:32:36Z</time>
      </trkpt>
      <trkpt lat="44.77251" lon="4.76903">
        <ele>94</ele>
        <time>2013-04-24T17:32:50Z</time>
      </trkpt>
      <trkpt lat="44.7725" lon="4.76904">
        <ele>93</ele>
        <time>2013-04-24T17:32:51Z</time>
      </trkpt>
      <trkpt lat="44.77243" lon="4.76904">
        <ele>93</ele>
        <time>2013-04-24T17:32:54Z</time>
      </trkpt>
      <trkpt lat="44.7724" lon="4.76903">
        <ele>93</ele>
        <time>2013-04-24T17:32:55Z</time>
      </trkpt>
      <trkpt lat="44.7724" lon="4.76903">
        <ele>93</ele>
        <time>2013-04-24T17:32:55Z</time>
      </trkpt>
      <trkpt lat="44.77223" lon="4.76902">
        <ele>92</ele>
        <time>2013-04-24T17:33:00Z</time>
      </trkpt>
      <trkpt lat="44.77159" lon="4.76898">
        <ele>90</ele>
        <time>2013-04-24T17:33:54Z</time>
      </trkpt>
      <trkpt lat="44.7713" lon="4.76897">
        <ele>90</ele>
        <time>2013-04-24T17:34:02Z</time>
      </trkpt>
      <trkpt lat="44.77103" lon="4.76895">
        <ele>90</ele>
        <time>2013-04-24T17:34:09Z</time>
      </trkpt>
      <trkpt lat="44.77099" lon="4.76895">
        <ele>90</ele>
        <time>2013-04-24T17:34:10Z</time>
      </trkpt>
      <trkpt lat="44.77074" lon="4.76893">
        <ele>90</ele>
        <time>2013-04-24T17:34:16Z</time>
      </trkpt>
      <trkpt lat="44.77071" lon="4.76892">
        <ele>90</ele>
        <time>2013-04-24T17:34:17Z</time>
      </trkpt>
      <trkpt lat="44.77071" lon="4.76889">
        <ele>90</ele>
        <time>2013-04-24T17:34:18Z</time>
      </trkpt>
      <trkpt lat="44.77073" lon="4.76887">
        <ele>90</ele>
        <time>2013-04-24T17:34:19Z</time>
      </trkpt>
      <trkpt lat="44.77078" lon="4.76867">
        <ele>90</ele>
        <time>2013-04-24T17:34:24Z</time>
      </trkpt>
      <trkpt lat="44.7708" lon="4.76829">
        <ele>90</ele>
        <time>2013-04-24T17:34:31Z</time>
      </trkpt>
      <trkpt lat="44.7708" lon="4.76805">
        <ele>90</ele>
        <time>2013-04-24T17:34:35Z</time>
      </trkpt>
      <trkpt lat="44.7708" lon="4.76779">
        <ele>90</ele>
        <time>2013-04-24T17:34:39Z</time>
      </trkpt>
      <trkpt lat="44.7708" lon="4.76729">
        <ele>89</ele>
        <time>2013-04-24T17:34:46Z</time>
      </trkpt>
      <trkpt lat="44.77078" lon="4.76704">
        <ele>90</ele>
        <time>2013-04-24T17:34:50Z</time>
      </trkpt>
      <trkpt lat="44.77077" lon="4.76682">
        <ele>90</ele>
        <time>2013-04-24T17:34:53Z</time>
      </trkpt>
      <trkpt lat="44.77072" lon="4.76654">
        <ele>90</ele>
        <time>2013-04-24T17:35:00Z</time>
      </trkpt>
      <trkpt lat="44.7707" lon="4.76654">
        <ele>90</ele>
        <time>2013-04-24T17:35:01Z</time>
      </trkpt>
      <trkpt lat="44.77069" lon="4.76664">
        <ele>90</ele>
        <time>2013-04-24T17:35:04Z</time>
      </trkpt>
      <trkpt lat="44.77068" lon="4.76669">
        <ele>90</ele>
        <time>2013-04-24T17:35:05Z</time>
      </trkpt>
      <trkpt lat="44.77068" lon="4.76675">
        <ele>90</ele>
        <time>2013-04-24T17:35:06Z</time>
      </trkpt>
      <trkpt lat="44.77067" lon="4.76682">
        <ele>90</ele>
        <time>2013-04-24T17:35:07Z</time>
      </trkpt>
      <trkpt lat="44.77067" lon="4.76689">
        <ele>90</ele>
        <time>2013-04-24T17:35:08Z</time>
      </trkpt>
      <trkpt lat="44.77067" lon="4.76698">
        <ele>90</ele>
        <time>2013-04-24T17:35:09Z</time>
      </trkpt>
      <trkpt lat="44.77065" lon="4.76704">
        <ele>90</ele>
        <time>2013-04-24T17:35:10Z</time>
      </trkpt>
      <trkpt lat="44.77062" lon="4.76706">
        <ele>90</ele>
        <time>2013-04-24T17:35:11Z</time>
      </trkpt>
      <trkpt lat="44.7706" lon="4.76705">
        <ele>90</ele>
        <time>2013-04-24T17:35:12Z</time>
      </trkpt>
      <trkpt lat="44.7706" lon="4.76705">
        <ele>90</ele>
        <time>2013-04-24T17:35:13Z</time>
      </trkpt>
      <trkpt lat="44.7706" lon="4.76704">
        <ele>90</ele>
        <time>2013-04-24T17:35:14Z</time>
      </trkpt>
      <trkpt lat="44.7706" lon="4.76704">
        <ele>90</ele>
        <time>2013-04-24T17:35:15Z</time>
      </trkpt>
      <trkpt lat="44.7706" lon="4.76704">
        <ele>90</ele>
        <time>2013-04-24T17:35:16Z</time>
      </trkpt>
      <trkpt lat="44.7706" lon="4.76704">
        <ele>90</ele>
        <time>2013-04-24T17:35:22Z</time>
      </trkpt>
      <trkpt lat="44.7706" lon="4.76704">
        <ele>90</ele>
        <time>2013-04-24T17:35:36Z</time>
      </trkpt>
      <trkpt lat="44.7706" lon="4.76704">
        <ele>90</ele>
        <time>2013-04-24T17:35:44Z</time>
      </trkpt>
      <trkpt lat="44.7706" lon="4.76704">
        <ele>90</ele>
        <time>2013-04-24T17:35:44Z</time>
      </trkpt>
      <trkpt lat="44.77059" lon="4.76699">
        <ele>90</ele>
        <time>2013-04-24T17:35:46Z</time>
      </trkpt>
      <trkpt lat="44.77059" lon="4.76683">
        <ele>90</ele>
        <time>2013-04-24T17:35:49Z</time>
      </trkpt>
      <trkpt lat="44.77059" lon="4.76678">
        <ele>90</ele>
        <time>2013-04-24T17:35:50Z</time>
      </trkpt>
      <trkpt lat="44.77058" lon="4.76657">
        <ele>90</ele>
        <time>2013-04-24T17:35:54Z</time>
      </trkpt>
      <trkpt lat="44.77058" lon="4.76647">
        <ele>90</ele>
        <time>2013-04-24T17:35:56Z</time>
      </trkpt>
      <trkpt lat="44.77053" lon="4.76618">
        <ele>90</ele>
        <time>2013-04-24T17:36:01Z</time>
      </trkpt>
      <trkpt lat="44.77047" lon="4.76573">
        <ele>90</ele>
        <time>2013-04-24T17:36:08Z</time>
      </trkpt>
      <trkpt lat="44.77037" lon="4.76511">
        <ele>89</ele>
        <time>2013-04-24T17:36:17Z</time>
      </trkpt>
      <trkpt lat="44.77026" lon="4.76452">
        <ele>88</ele>
        <time>2013-04-24T17:36:25Z</time>
      </trkpt>
      <trkpt lat="44.7701" lon="4.76384">
        <ele>88</ele>
        <time>2013-04-24T17:36:34Z</time>
      </trkpt>
      <trkpt lat="44.76997" lon="4.76329">
        <ele>89</ele>
        <time>2013-04-24T17:36:41Z</time>
      </trkpt>
      <trkpt lat="44.76979" lon="4.76267">
        <ele>90</ele>
        <time>2013-04-24T17:36:49Z</time>
      </trkpt>
      <trkpt lat="44.76958" lon="4.76207">
        <ele>90</ele>
        <time>2013-04-24T17:36:57Z</time>
      </trkpt>
      <trkpt lat="44.76931" lon="4.7615">
        <ele>90</ele>
        <time>2013-04-24T17:37:05Z</time>
      </trkpt>
      <trkpt lat="44.76896" lon="4.7609">
        <ele>89</ele>
        <time>2013-04-24T17:37:14Z</time>
      </trkpt>
      <trkpt lat="44.76855" lon="4.76039">
        <ele>90</ele>
        <time>2013-04-24T17:37:23Z</time>
      </trkpt>
      <trkpt lat="44.7682" lon="4.76007">
        <ele>90</ele>
        <time>2013-04-24T17:37:30Z</time>
      </trkpt>
      <trkpt lat="44.76788" lon="4.75984">
        <ele>90</ele>
        <time>2013-04-24T17:37:36Z</time>
      </trkpt>
      <trkpt lat="44.76777" lon="4.75978">
        <ele>90</ele>
        <time>2013-04-24T17:37:38Z</time>
      </trkpt>
      <trkpt lat="44.76772" lon="4.75974">
        <ele>90</ele>
        <time>2013-04-24T17:37:39Z</time>
      </trkpt>
      <trkpt lat="44.76755" lon="4.75965">
        <ele>90</ele>
        <time>2013-04-24T17:37:42Z</time>
      </trkpt>
      <trkpt lat="44.76712" lon="4.75945">
        <ele>90</ele>
        <time>2013-04-24T17:37:49Z</time>
      </trkpt>
      <trkpt lat="44.76667" lon="4.75925">
        <ele>90</ele>
        <time>2013-04-24T17:37:56Z</time>
      </trkpt>
      <trkpt lat="44.76609" lon="4.75899">
        <ele>90</ele>
        <time>2013-04-24T17:38:05Z</time>
      </trkpt>
      <trkpt lat="44.76559" lon="4.75876">
        <ele>90</ele>
        <time>2013-04-24T17:38:13Z</time>
      </trkpt>
      <trkpt lat="44.76523" lon="4.75859">
        <ele>90</ele>
        <time>2013-04-24T17:38:19Z</time>
      </trkpt>
      <trkpt lat="44.76517" lon="4.75856">
        <ele>90</ele>
        <time>2013-04-24T17:38:20Z</time>
      </trkpt>
      <trkpt lat="44.76467" lon="4.75835">
        <ele>90</ele>
        <time>2013-04-24T17:38:28Z</time>
      </trkpt>
      <trkpt lat="44.76418" lon="4.75811">
        <ele>89</ele>
        <time>2013-04-24T17:38:36Z</time>
      </trkpt>
      <trkpt lat="44.7637" lon="4.7579">
        <ele>88</ele>
        <time>2013-04-24T17:38:44Z</time>
      </trkpt>
      <trkpt lat="44.7633" lon="4.75771">
        <ele>88</ele>
        <time>2013-04-24T17:38:51Z</time>
      </trkpt>
      <trkpt lat="44.76297" lon="4.75754">
        <ele>89</ele>
        <time>2013-04-24T17:38:57Z</time>
      </trkpt>
      <trkpt lat="44.76244" lon="4.7573">
        <ele>90</ele>
        <time>2013-04-24T17:39:06Z</time>
      </trkpt>
      <trkpt lat="44.76192" lon="4.75706">
        <ele>90</ele>
        <time>2013-04-24T17:39:14Z</time>
      </trkpt>
      <trkpt lat="44.76185" lon="4.75703">
        <ele>91</ele>
        <time>2013-04-24T17:39:15Z</time>
      </trkpt>
      <trkpt lat="44.76139" lon="4.75682">
        <ele>91</ele>
        <time>2013-04-24T17:39:22Z</time>
      </trkpt>
      <trkpt lat="44.76087" lon="4.75659">
        <ele>90</ele>
        <time>2013-04-24T17:39:30Z</time>
      </trkpt>
      <trkpt lat="44.7608" lon="4.75656">
        <ele>90</ele>
        <time>2013-04-24T17:39:31Z</time>
      </trkpt>
      <trkpt lat="44.76028" lon="4.75631">
        <ele>89</ele>
        <time>2013-04-24T17:39:39Z</time>
      </trkpt>
      <trkpt lat="44.75983" lon="4.75609">
        <ele>90</ele>
        <time>2013-04-24T17:39:46Z</time>
      </trkpt>
      <trkpt lat="44.75937" lon="4.75591">
        <ele>90</ele>
        <time>2013-04-24T17:39:53Z</time>
      </trkpt>
      <trkpt lat="44.75885" lon="4.75574">
        <ele>89</ele>
        <time>2013-04-24T17:40:01Z</time>
      </trkpt>
      <trkpt lat="44.75846" lon="4.75564">
        <ele>89</ele>
        <time>2013-04-24T17:40:07Z</time>
      </trkpt>
      <trkpt lat="44.75801" lon="4.75555">
        <ele>89</ele>
        <time>2013-04-24T17:40:14Z</time>
      </trkpt>
      <trkpt lat="44.75788" lon="4.75553">
        <ele>89</ele>
        <time>2013-04-24T17:40:16Z</time>
      </trkpt>
      <trkpt lat="44.75765" lon="4.75551">
        <ele>89</ele>
        <time>2013-04-24T17:40:20Z</time>
      </trkpt>
      <trkpt lat="44.75748" lon="4.75549">
        <ele>90</ele>
        <time>2013-04-24T17:40:23Z</time>
      </trkpt>
      <trkpt lat="44.75738" lon="4.75545">
        <ele>90</ele>
        <time>2013-04-24T17:40:25Z</time>
      </trkpt>
      <trkpt lat="44.75734" lon="4.75542">
        <ele>90</ele>
        <time>2013-04-24T17:40:26Z</time>
      </trkpt>
      <trkpt lat="44.75722" lon="4.75533">
        <ele>90</ele>
        <time>2013-04-24T17:40:30Z</time>
      </trkpt>
      <trkpt lat="44.75711" lon="4.75522">
        <ele>89</ele>
        <time>2013-04-24T17:40:36Z</time>
      </trkpt>
      <trkpt lat="44.75701" lon="4.75502">
        <ele>89</ele>
        <time>2013-04-24T17:40:43Z</time>
      </trkpt>
      <trkpt lat="44.75687" lon="4.75482">
        <ele>87</ele>
        <time>2013-04-24T17:40:49Z</time>
      </trkpt>
      <trkpt lat="44.75667" lon="4.75477">
        <ele>87</ele>
        <time>2013-04-24T17:40:55Z</time>
      </trkpt>
      <trkpt lat="44.75657" lon="4.75484">
        <ele>87</ele>
        <time>2013-04-24T17:41:00Z</time>
      </trkpt>
      <trkpt lat="44.75644" lon="4.75496">
        <ele>87</ele>
        <time>2013-04-24T17:41:05Z</time>
      </trkpt>
      <trkpt lat="44.75636" lon="4.75532">
        <ele>89</ele>
      </trkpt>
    </trkseg>
  </trk>
</gpx>